<?xml version="1.0" encoding="UTF-8" standalone="no" ?>
<gpx xmlns="http://www.topografix.com/GPX/1/1" xmlns:xsi="http://www.w3.org/2001/XMLSchema-instance" xsi:schemaLocation="http://www.topografix.com/GPX/1/1 http://www.topografix.com/GPX/1/1/gpx.xsd" version="1.1" creator="VisuGPX - https://www.visugpx.com">
  <metadata>
    <name>GILHOC SUR ORMEZE 8 Le serre de Colombier</name>
  </metadata>
  <trk>
    <name><![CDATA[GILHOC SUR ORMEZE 8 Le serre de Colombier_1]]></name>
    <extensions>
      <line xmlns="http://www.topografix.com/GPX/gpx_style/0/2">
        <color>0000FF</color>
        <width>4</width>
      </line>
    </extensions>
    <trkseg>
      <trkpt lat="44.9862" lon="4.68796">
        <ele>491</ele>
        <time>2018-11-08T13:22:51+01:00</time>
      </trkpt>
      <trkpt lat="44.98632" lon="4.68793">
        <ele>490</ele>
        <time>2018-11-08T13:23:01+01:00</time>
      </trkpt>
      <trkpt lat="44.98639" lon="4.68794">
        <ele>489</ele>
        <time>2018-11-08T13:23:08+01:00</time>
      </trkpt>
      <trkpt lat="44.98642" lon="4.68792">
        <ele>489</ele>
        <time>2018-11-08T13:23:10+01:00</time>
      </trkpt>
      <trkpt lat="44.98646" lon="4.68791">
        <ele>489</ele>
        <time>2018-11-08T13:23:14+01:00</time>
      </trkpt>
      <trkpt lat="44.9866" lon="4.68791">
        <ele>488</ele>
        <time>2018-11-08T13:23:21+01:00</time>
      </trkpt>
      <trkpt lat="44.98671" lon="4.68794">
        <ele>486</ele>
        <time>2018-11-08T13:23:24+01:00</time>
      </trkpt>
      <trkpt lat="44.98713" lon="4.68812">
        <ele>482</ele>
      </trkpt>
      <trkpt lat="44.98759" lon="4.68839">
        <ele>478</ele>
        <time>2018-11-08T13:25:01+01:00</time>
      </trkpt>
      <trkpt lat="44.9878" lon="4.68852">
        <ele>476</ele>
        <time>2018-11-08T13:31:52+01:00</time>
      </trkpt>
      <trkpt lat="44.9879" lon="4.68856">
        <ele>475</ele>
        <time>2018-11-08T13:32:01+01:00</time>
      </trkpt>
      <trkpt lat="44.98797" lon="4.68857">
        <ele>475</ele>
        <time>2018-11-08T13:32:09+01:00</time>
      </trkpt>
      <trkpt lat="44.98802" lon="4.68858">
        <ele>475</ele>
        <time>2018-11-08T13:32:14+01:00</time>
      </trkpt>
      <trkpt lat="44.98807" lon="4.68859">
        <ele>475</ele>
        <time>2018-11-08T13:32:18+01:00</time>
      </trkpt>
      <trkpt lat="44.98812" lon="4.68859">
        <ele>474</ele>
        <time>2018-11-08T13:32:25+01:00</time>
      </trkpt>
      <trkpt lat="44.98821" lon="4.68859">
        <ele>474</ele>
        <time>2018-11-08T13:32:34+01:00</time>
      </trkpt>
      <trkpt lat="44.98832" lon="4.68857">
        <ele>474</ele>
        <time>2018-11-08T13:32:42+01:00</time>
      </trkpt>
      <trkpt lat="44.98841" lon="4.68855">
        <ele>473</ele>
        <time>2018-11-08T13:32:49+01:00</time>
      </trkpt>
      <trkpt lat="44.98849" lon="4.68854">
        <ele>472</ele>
        <time>2018-11-08T13:32:59+01:00</time>
      </trkpt>
      <trkpt lat="44.9886" lon="4.68853">
        <ele>471</ele>
        <time>2018-11-08T13:33:07+01:00</time>
      </trkpt>
      <trkpt lat="44.98869" lon="4.68852">
        <ele>471</ele>
        <time>2018-11-08T13:33:16+01:00</time>
      </trkpt>
      <trkpt lat="44.98878" lon="4.68852">
        <ele>470</ele>
        <time>2018-11-08T13:33:25+01:00</time>
      </trkpt>
      <trkpt lat="44.98887" lon="4.68853">
        <ele>469</ele>
        <time>2018-11-08T13:33:33+01:00</time>
      </trkpt>
      <trkpt lat="44.98895" lon="4.68852">
        <ele>468</ele>
        <time>2018-11-08T13:33:42+01:00</time>
      </trkpt>
      <trkpt lat="44.98901" lon="4.68852">
        <ele>468</ele>
        <time>2018-11-08T13:33:49+01:00</time>
      </trkpt>
      <trkpt lat="44.98911" lon="4.68849">
        <ele>467</ele>
        <time>2018-11-08T13:33:58+01:00</time>
      </trkpt>
      <trkpt lat="44.98912" lon="4.68849">
        <ele>467</ele>
        <time>2018-11-08T13:33:59+01:00</time>
      </trkpt>
      <trkpt lat="44.9892" lon="4.68844">
        <ele>466</ele>
        <time>2018-11-08T13:34:08+01:00</time>
      </trkpt>
      <trkpt lat="44.98933" lon="4.68838">
        <ele>464</ele>
        <time>2018-11-08T13:34:18+01:00</time>
      </trkpt>
      <trkpt lat="44.9894" lon="4.68835">
        <ele>462</ele>
        <time>2018-11-08T13:34:25+01:00</time>
      </trkpt>
      <trkpt lat="44.98952" lon="4.68831">
        <ele>460</ele>
        <time>2018-11-08T13:34:37+01:00</time>
      </trkpt>
      <trkpt lat="44.98961" lon="4.68829">
        <ele>458</ele>
        <time>2018-11-08T13:34:45+01:00</time>
      </trkpt>
      <trkpt lat="44.98973" lon="4.68825">
        <ele>455</ele>
        <time>2018-11-08T13:34:55+01:00</time>
      </trkpt>
      <trkpt lat="44.98985" lon="4.68821">
        <ele>452</ele>
        <time>2018-11-08T13:35:06+01:00</time>
      </trkpt>
      <trkpt lat="44.98998" lon="4.68817">
        <ele>449</ele>
        <time>2018-11-08T13:35:17+01:00</time>
      </trkpt>
      <trkpt lat="44.99008" lon="4.68816">
        <ele>448</ele>
        <time>2018-11-08T13:35:24+01:00</time>
      </trkpt>
      <trkpt lat="44.99015" lon="4.68816">
        <ele>448</ele>
        <time>2018-11-08T13:35:31+01:00</time>
      </trkpt>
      <trkpt lat="44.99019" lon="4.68816">
        <ele>447</ele>
        <time>2018-11-08T13:35:36+01:00</time>
      </trkpt>
      <trkpt lat="44.99025" lon="4.6882">
        <ele>447</ele>
        <time>2018-11-08T13:35:44+01:00</time>
      </trkpt>
      <trkpt lat="44.99033" lon="4.68822">
        <ele>446</ele>
        <time>2018-11-08T13:35:52+01:00</time>
      </trkpt>
      <trkpt lat="44.99045" lon="4.68826">
        <ele>445</ele>
        <time>2018-11-08T13:36:01+01:00</time>
      </trkpt>
      <trkpt lat="44.99055" lon="4.68832">
        <ele>444</ele>
        <time>2018-11-08T13:36:10+01:00</time>
      </trkpt>
      <trkpt lat="44.99066" lon="4.68839">
        <ele>443</ele>
        <time>2018-11-08T13:36:20+01:00</time>
      </trkpt>
      <trkpt lat="44.99071" lon="4.68844">
        <ele>443</ele>
        <time>2018-11-08T13:36:24+01:00</time>
      </trkpt>
      <trkpt lat="44.9908" lon="4.68853">
        <ele>442</ele>
        <time>2018-11-08T13:36:32+01:00</time>
      </trkpt>
      <trkpt lat="44.99085" lon="4.68855">
        <ele>441</ele>
        <time>2018-11-08T13:36:41+01:00</time>
      </trkpt>
      <trkpt lat="44.99093" lon="4.68863">
        <ele>441</ele>
        <time>2018-11-08T13:36:48+01:00</time>
      </trkpt>
      <trkpt lat="44.99105" lon="4.6887">
        <ele>441</ele>
        <time>2018-11-08T13:36:57+01:00</time>
      </trkpt>
      <trkpt lat="44.99107" lon="4.68869">
        <ele>441</ele>
        <time>2018-11-08T13:37:00+01:00</time>
      </trkpt>
      <trkpt lat="44.99111" lon="4.68863">
        <ele>441</ele>
        <time>2018-11-08T13:37:04+01:00</time>
      </trkpt>
      <trkpt lat="44.99118" lon="4.68845">
        <ele>440</ele>
        <time>2018-11-08T13:37:14+01:00</time>
      </trkpt>
      <trkpt lat="44.99119" lon="4.68828">
        <ele>440</ele>
        <time>2018-11-08T13:37:22+01:00</time>
      </trkpt>
      <trkpt lat="44.99121" lon="4.68814">
        <ele>440</ele>
        <time>2018-11-08T13:37:30+01:00</time>
      </trkpt>
      <trkpt lat="44.99123" lon="4.688">
        <ele>441</ele>
        <time>2018-11-08T13:37:38+01:00</time>
      </trkpt>
      <trkpt lat="44.99126" lon="4.68789">
        <ele>441</ele>
        <time>2018-11-08T13:37:45+01:00</time>
      </trkpt>
      <trkpt lat="44.99129" lon="4.68778">
        <ele>442</ele>
        <time>2018-11-08T13:37:52+01:00</time>
      </trkpt>
      <trkpt lat="44.99129" lon="4.68766">
        <ele>442</ele>
        <time>2018-11-08T13:38:00+01:00</time>
      </trkpt>
      <trkpt lat="44.99131" lon="4.68754">
        <ele>443</ele>
        <time>2018-11-08T13:38:08+01:00</time>
      </trkpt>
      <trkpt lat="44.99136" lon="4.68747">
        <ele>443</ele>
        <time>2018-11-08T13:38:15+01:00</time>
      </trkpt>
      <trkpt lat="44.9914" lon="4.68747">
        <ele>443</ele>
        <time>2018-11-08T13:38:21+01:00</time>
      </trkpt>
      <trkpt lat="44.99147" lon="4.6875">
        <ele>443</ele>
        <time>2018-11-08T13:38:29+01:00</time>
      </trkpt>
      <trkpt lat="44.99159" lon="4.68753">
        <ele>443</ele>
        <time>2018-11-08T13:38:38+01:00</time>
      </trkpt>
      <trkpt lat="44.99166" lon="4.68752">
        <ele>443</ele>
        <time>2018-11-08T13:38:45+01:00</time>
      </trkpt>
      <trkpt lat="44.99169" lon="4.6875">
        <ele>443</ele>
        <time>2018-11-08T13:38:47+01:00</time>
      </trkpt>
      <trkpt lat="44.99173" lon="4.6875">
        <ele>444</ele>
        <time>2018-11-08T13:38:50+01:00</time>
      </trkpt>
      <trkpt lat="44.99183" lon="4.68741">
        <ele>448</ele>
        <time>2018-11-08T13:38:58+01:00</time>
      </trkpt>
      <trkpt lat="44.99186" lon="4.68732">
        <ele>449</ele>
        <time>2018-11-08T13:39:06+01:00</time>
      </trkpt>
      <trkpt lat="44.9919" lon="4.6873">
        <ele>450</ele>
        <time>2018-11-08T13:39:14+01:00</time>
      </trkpt>
      <trkpt lat="44.99191" lon="4.68731">
        <ele>450</ele>
        <time>2018-11-08T13:39:23+01:00</time>
      </trkpt>
      <trkpt lat="44.99197" lon="4.68735">
        <ele>451</ele>
        <time>2018-11-08T13:39:30+01:00</time>
      </trkpt>
      <trkpt lat="44.99201" lon="4.68742">
        <ele>451</ele>
        <time>2018-11-08T13:39:36+01:00</time>
      </trkpt>
      <trkpt lat="44.99207" lon="4.68752">
        <ele>452</ele>
        <time>2018-11-08T13:39:44+01:00</time>
      </trkpt>
      <trkpt lat="44.99213" lon="4.6876">
        <ele>452</ele>
        <time>2018-11-08T13:39:51+01:00</time>
      </trkpt>
      <trkpt lat="44.99218" lon="4.68763">
        <ele>453</ele>
        <time>2018-11-08T13:39:58+01:00</time>
      </trkpt>
      <trkpt lat="44.99221" lon="4.68765">
        <ele>453</ele>
        <time>2018-11-08T13:40:05+01:00</time>
      </trkpt>
      <trkpt lat="44.99221" lon="4.68765">
        <ele>453</ele>
        <time>2018-11-08T13:40:12+01:00</time>
      </trkpt>
      <trkpt lat="44.99223" lon="4.68772">
        <ele>453</ele>
        <time>2018-11-08T13:40:21+01:00</time>
      </trkpt>
      <trkpt lat="44.99224" lon="4.68773">
        <ele>453</ele>
        <time>2018-11-08T13:40:27+01:00</time>
      </trkpt>
      <trkpt lat="44.99229" lon="4.68775">
        <ele>453</ele>
        <time>2018-11-08T13:40:36+01:00</time>
      </trkpt>
      <trkpt lat="44.99231" lon="4.68778">
        <ele>453</ele>
        <time>2018-11-08T13:40:42+01:00</time>
      </trkpt>
      <trkpt lat="44.99237" lon="4.68785">
        <ele>453</ele>
        <time>2018-11-08T13:40:51+01:00</time>
      </trkpt>
      <trkpt lat="44.99239" lon="4.68789">
        <ele>453</ele>
        <time>2018-11-08T13:40:59+01:00</time>
      </trkpt>
      <trkpt lat="44.99246" lon="4.68793">
        <ele>453</ele>
        <time>2018-11-08T13:41:07+01:00</time>
      </trkpt>
      <trkpt lat="44.99252" lon="4.68801">
        <ele>453</ele>
        <time>2018-11-08T13:41:15+01:00</time>
      </trkpt>
      <trkpt lat="44.99257" lon="4.68805">
        <ele>454</ele>
        <time>2018-11-08T13:41:21+01:00</time>
      </trkpt>
      <trkpt lat="44.99262" lon="4.68808">
        <ele>454</ele>
        <time>2018-11-08T13:41:28+01:00</time>
      </trkpt>
      <trkpt lat="44.99262" lon="4.68811">
        <ele>454</ele>
        <time>2018-11-08T13:41:34+01:00</time>
      </trkpt>
      <trkpt lat="44.99265" lon="4.68811">
        <ele>455</ele>
        <time>2018-11-08T13:41:41+01:00</time>
      </trkpt>
      <trkpt lat="44.99276" lon="4.68818">
        <ele>457</ele>
        <time>2018-11-08T13:41:49+01:00</time>
      </trkpt>
      <trkpt lat="44.99283" lon="4.68825">
        <ele>458</ele>
        <time>2018-11-08T13:41:57+01:00</time>
      </trkpt>
      <trkpt lat="44.99284" lon="4.68826">
        <ele>458</ele>
        <time>2018-11-08T13:41:58+01:00</time>
      </trkpt>
      <trkpt lat="44.99286" lon="4.6883">
        <ele>458</ele>
        <time>2018-11-08T13:42:01+01:00</time>
      </trkpt>
      <trkpt lat="44.99292" lon="4.68838">
        <ele>458</ele>
        <time>2018-11-08T13:42:08+01:00</time>
      </trkpt>
      <trkpt lat="44.99299" lon="4.68845">
        <ele>459</ele>
        <time>2018-11-08T13:42:16+01:00</time>
      </trkpt>
      <trkpt lat="44.99302" lon="4.68847">
        <ele>460</ele>
        <time>2018-11-08T13:42:22+01:00</time>
      </trkpt>
      <trkpt lat="44.99306" lon="4.68849">
        <ele>461</ele>
        <time>2018-11-08T13:42:28+01:00</time>
      </trkpt>
      <trkpt lat="44.99312" lon="4.68853">
        <ele>462</ele>
        <time>2018-11-08T13:42:35+01:00</time>
      </trkpt>
      <trkpt lat="44.9932" lon="4.68861">
        <ele>462</ele>
        <time>2018-11-08T13:42:43+01:00</time>
      </trkpt>
      <trkpt lat="44.99326" lon="4.6887">
        <ele>461</ele>
        <time>2018-11-08T13:42:50+01:00</time>
      </trkpt>
      <trkpt lat="44.99327" lon="4.68873">
        <ele>461</ele>
        <time>2018-11-08T13:42:56+01:00</time>
      </trkpt>
      <trkpt lat="44.99331" lon="4.6888">
        <ele>460</ele>
        <time>2018-11-08T13:43:01+01:00</time>
      </trkpt>
      <trkpt lat="44.99334" lon="4.68884">
        <ele>460</ele>
        <time>2018-11-08T13:43:05+01:00</time>
      </trkpt>
      <trkpt lat="44.99343" lon="4.68892">
        <ele>461</ele>
        <time>2018-11-08T13:43:14+01:00</time>
      </trkpt>
      <trkpt lat="44.9935" lon="4.68901">
        <ele>461</ele>
        <time>2018-11-08T13:43:22+01:00</time>
      </trkpt>
      <trkpt lat="44.99356" lon="4.68906">
        <ele>462</ele>
        <time>2018-11-08T13:43:27+01:00</time>
      </trkpt>
      <trkpt lat="44.99359" lon="4.68913">
        <ele>462</ele>
        <time>2018-11-08T13:43:31+01:00</time>
      </trkpt>
      <trkpt lat="44.99365" lon="4.68922">
        <ele>462</ele>
        <time>2018-11-08T13:43:39+01:00</time>
      </trkpt>
      <trkpt lat="44.9937" lon="4.68931">
        <ele>462</ele>
        <time>2018-11-08T13:43:47+01:00</time>
      </trkpt>
      <trkpt lat="44.99374" lon="4.68937">
        <ele>462</ele>
        <time>2018-11-08T13:43:52+01:00</time>
      </trkpt>
      <trkpt lat="44.99384" lon="4.68948">
        <ele>463</ele>
        <time>2018-11-08T13:44:01+01:00</time>
      </trkpt>
      <trkpt lat="44.99392" lon="4.68952">
        <ele>464</ele>
        <time>2018-11-08T13:44:10+01:00</time>
      </trkpt>
      <trkpt lat="44.99399" lon="4.68954">
        <ele>466</ele>
        <time>2018-11-08T13:44:19+01:00</time>
      </trkpt>
      <trkpt lat="44.99408" lon="4.6896">
        <ele>468</ele>
        <time>2018-11-08T13:44:27+01:00</time>
      </trkpt>
      <trkpt lat="44.9941" lon="4.68961">
        <ele>468</ele>
        <time>2018-11-08T13:44:28+01:00</time>
      </trkpt>
      <trkpt lat="44.99414" lon="4.68963">
        <ele>469</ele>
        <time>2018-11-08T13:44:32+01:00</time>
      </trkpt>
      <trkpt lat="44.99419" lon="4.68965">
        <ele>469</ele>
        <time>2018-11-08T13:44:36+01:00</time>
      </trkpt>
      <trkpt lat="44.99424" lon="4.68967">
        <ele>470</ele>
        <time>2018-11-08T13:44:43+01:00</time>
      </trkpt>
      <trkpt lat="44.99425" lon="4.68968">
        <ele>469</ele>
        <time>2018-11-08T13:44:44+01:00</time>
      </trkpt>
      <trkpt lat="44.99437" lon="4.68975">
        <ele>470</ele>
        <time>2018-11-08T13:44:52+01:00</time>
      </trkpt>
      <trkpt lat="44.99443" lon="4.68979">
        <ele>470</ele>
        <time>2018-11-08T13:44:58+01:00</time>
      </trkpt>
      <trkpt lat="44.99452" lon="4.68986">
        <ele>470</ele>
        <time>2018-11-08T13:45:05+01:00</time>
      </trkpt>
      <trkpt lat="44.9946" lon="4.6899">
        <ele>470</ele>
        <time>2018-11-08T13:45:12+01:00</time>
      </trkpt>
      <trkpt lat="44.99466" lon="4.68994">
        <ele>470</ele>
        <time>2018-11-08T13:45:18+01:00</time>
      </trkpt>
      <trkpt lat="44.99474" lon="4.68993">
        <ele>472</ele>
        <time>2018-11-08T13:45:24+01:00</time>
      </trkpt>
      <trkpt lat="44.99482" lon="4.68987">
        <ele>474</ele>
        <time>2018-11-08T13:45:31+01:00</time>
      </trkpt>
      <trkpt lat="44.99486" lon="4.68982">
        <ele>476</ele>
        <time>2018-11-08T13:45:38+01:00</time>
      </trkpt>
      <trkpt lat="44.99492" lon="4.68975">
        <ele>478</ele>
        <time>2018-11-08T13:45:46+01:00</time>
      </trkpt>
      <trkpt lat="44.99498" lon="4.68967">
        <ele>480</ele>
        <time>2018-11-08T13:45:53+01:00</time>
      </trkpt>
      <trkpt lat="44.99502" lon="4.68961">
        <ele>482</ele>
        <time>2018-11-08T13:45:59+01:00</time>
      </trkpt>
      <trkpt lat="44.99507" lon="4.68952">
        <ele>483</ele>
        <time>2018-11-08T13:46:07+01:00</time>
      </trkpt>
      <trkpt lat="44.99512" lon="4.68944">
        <ele>485</ele>
        <time>2018-11-08T13:46:14+01:00</time>
      </trkpt>
      <trkpt lat="44.99518" lon="4.68937">
        <ele>486</ele>
        <time>2018-11-08T13:46:21+01:00</time>
      </trkpt>
      <trkpt lat="44.99523" lon="4.68938">
        <ele>486</ele>
        <time>2018-11-08T13:46:27+01:00</time>
      </trkpt>
      <trkpt lat="44.99527" lon="4.68944">
        <ele>486</ele>
        <time>2018-11-08T13:46:33+01:00</time>
      </trkpt>
      <trkpt lat="44.99528" lon="4.68952">
        <ele>485</ele>
        <time>2018-11-08T13:46:40+01:00</time>
      </trkpt>
      <trkpt lat="44.99528" lon="4.68958">
        <ele>484</ele>
        <time>2018-11-08T13:46:44+01:00</time>
      </trkpt>
      <trkpt lat="44.99529" lon="4.68963">
        <ele>483</ele>
        <time>2018-11-08T13:46:47+01:00</time>
      </trkpt>
      <trkpt lat="44.9953" lon="4.68973">
        <ele>482</ele>
        <time>2018-11-08T13:46:55+01:00</time>
      </trkpt>
      <trkpt lat="44.99531" lon="4.68976">
        <ele>481</ele>
        <time>2018-11-08T13:46:57+01:00</time>
      </trkpt>
      <trkpt lat="44.99535" lon="4.68988">
        <ele>480</ele>
        <time>2018-11-08T13:47:05+01:00</time>
      </trkpt>
      <trkpt lat="44.99541" lon="4.69003">
        <ele>479</ele>
        <time>2018-11-08T13:47:14+01:00</time>
      </trkpt>
      <trkpt lat="44.99548" lon="4.69012">
        <ele>478</ele>
        <time>2018-11-08T13:47:22+01:00</time>
      </trkpt>
      <trkpt lat="44.99555" lon="4.69014">
        <ele>478</ele>
        <time>2018-11-08T13:47:29+01:00</time>
      </trkpt>
      <trkpt lat="44.9956" lon="4.69012">
        <ele>479</ele>
        <time>2018-11-08T13:47:35+01:00</time>
      </trkpt>
      <trkpt lat="44.99568" lon="4.69005">
        <ele>481</ele>
        <time>2018-11-08T13:47:43+01:00</time>
      </trkpt>
      <trkpt lat="44.99572" lon="4.68999">
        <ele>482</ele>
        <time>2018-11-08T13:47:50+01:00</time>
      </trkpt>
      <trkpt lat="44.99576" lon="4.68994">
        <ele>483</ele>
        <time>2018-11-08T13:47:55+01:00</time>
      </trkpt>
      <trkpt lat="44.99582" lon="4.68985">
        <ele>484</ele>
        <time>2018-11-08T13:48:02+01:00</time>
      </trkpt>
      <trkpt lat="44.99586" lon="4.68977">
        <ele>485</ele>
        <time>2018-11-08T13:48:09+01:00</time>
      </trkpt>
      <trkpt lat="44.9959" lon="4.68966">
        <ele>487</ele>
        <time>2018-11-08T13:48:17+01:00</time>
      </trkpt>
      <trkpt lat="44.99591" lon="4.68957">
        <ele>488</ele>
        <time>2018-11-08T13:48:23+01:00</time>
      </trkpt>
      <trkpt lat="44.99594" lon="4.68948">
        <ele>489</ele>
        <time>2018-11-08T13:48:30+01:00</time>
      </trkpt>
      <trkpt lat="44.99599" lon="4.68938">
        <ele>490</ele>
        <time>2018-11-08T13:48:37+01:00</time>
      </trkpt>
      <trkpt lat="44.99602" lon="4.68928">
        <ele>491</ele>
        <time>2018-11-08T13:48:43+01:00</time>
      </trkpt>
      <trkpt lat="44.99603" lon="4.68927">
        <ele>491</ele>
        <time>2018-11-08T13:48:44+01:00</time>
      </trkpt>
      <trkpt lat="44.99607" lon="4.68921">
        <ele>492</ele>
        <time>2018-11-08T13:48:52+01:00</time>
      </trkpt>
      <trkpt lat="44.99611" lon="4.68917">
        <ele>493</ele>
        <time>2018-11-08T13:48:56+01:00</time>
      </trkpt>
      <trkpt lat="44.99619" lon="4.68912">
        <ele>494</ele>
        <time>2018-11-08T13:49:02+01:00</time>
      </trkpt>
      <trkpt lat="44.9962" lon="4.6891">
        <ele>494</ele>
        <time>2018-11-08T13:49:04+01:00</time>
      </trkpt>
      <trkpt lat="44.99625" lon="4.68905">
        <ele>495</ele>
        <time>2018-11-08T13:49:10+01:00</time>
      </trkpt>
      <trkpt lat="44.99628" lon="4.68904">
        <ele>495</ele>
        <time>2018-11-08T13:49:16+01:00</time>
      </trkpt>
      <trkpt lat="44.99631" lon="4.68908">
        <ele>495</ele>
        <time>2018-11-08T13:49:23+01:00</time>
      </trkpt>
      <trkpt lat="44.99632" lon="4.68909">
        <ele>495</ele>
        <time>2018-11-08T13:49:32+01:00</time>
      </trkpt>
      <trkpt lat="44.99635" lon="4.68916">
        <ele>494</ele>
        <time>2018-11-08T13:49:47+01:00</time>
      </trkpt>
      <trkpt lat="44.99635" lon="4.68919">
        <ele>494</ele>
        <time>2018-11-08T13:50:03+01:00</time>
      </trkpt>
      <trkpt lat="44.9964" lon="4.68923">
        <ele>494</ele>
        <time>2018-11-08T13:50:14+01:00</time>
      </trkpt>
      <trkpt lat="44.99637" lon="4.68928">
        <ele>493</ele>
        <time>2018-11-08T13:50:33+01:00</time>
      </trkpt>
      <trkpt lat="44.99638" lon="4.68926">
        <ele>493</ele>
        <time>2018-11-08T13:50:40+01:00</time>
      </trkpt>
      <trkpt lat="44.99637" lon="4.68928">
        <ele>493</ele>
        <time>2018-11-08T13:50:48+01:00</time>
      </trkpt>
      <trkpt lat="44.99631" lon="4.6893">
        <ele>493</ele>
        <time>2018-11-08T13:51:01+01:00</time>
      </trkpt>
      <trkpt lat="44.99627" lon="4.68931">
        <ele>492</ele>
        <time>2018-11-08T13:51:08+01:00</time>
      </trkpt>
      <trkpt lat="44.99607" lon="4.6892">
        <ele>492</ele>
        <time>2018-11-08T13:51:23+01:00</time>
      </trkpt>
      <trkpt lat="44.99605" lon="4.6892">
        <ele>492</ele>
        <time>2018-11-08T13:51:36+01:00</time>
      </trkpt>
      <trkpt lat="44.99613" lon="4.68919">
        <ele>493</ele>
        <time>2018-11-08T13:51:45+01:00</time>
      </trkpt>
      <trkpt lat="44.99621" lon="4.68915">
        <ele>493</ele>
        <time>2018-11-08T13:51:52+01:00</time>
      </trkpt>
      <trkpt lat="44.99629" lon="4.68921">
        <ele>493</ele>
        <time>2018-11-08T13:52:01+01:00</time>
      </trkpt>
      <trkpt lat="44.99634" lon="4.6893">
        <ele>493</ele>
        <time>2018-11-08T13:52:09+01:00</time>
      </trkpt>
      <trkpt lat="44.9964" lon="4.68937">
        <ele>492</ele>
        <time>2018-11-08T13:52:17+01:00</time>
      </trkpt>
      <trkpt lat="44.99646" lon="4.68941">
        <ele>492</ele>
        <time>2018-11-08T13:52:24+01:00</time>
      </trkpt>
      <trkpt lat="44.99653" lon="4.68953">
        <ele>491</ele>
        <time>2018-11-08T13:52:33+01:00</time>
      </trkpt>
      <trkpt lat="44.99661" lon="4.68967">
        <ele>490</ele>
        <time>2018-11-08T13:52:43+01:00</time>
      </trkpt>
      <trkpt lat="44.99669" lon="4.6898">
        <ele>489</ele>
        <time>2018-11-08T13:52:53+01:00</time>
      </trkpt>
      <trkpt lat="44.99679" lon="4.68989">
        <ele>489</ele>
        <time>2018-11-08T13:53:02+01:00</time>
      </trkpt>
      <trkpt lat="44.99689" lon="4.68993">
        <ele>489</ele>
        <time>2018-11-08T13:53:11+01:00</time>
      </trkpt>
      <trkpt lat="44.997" lon="4.68992">
        <ele>490</ele>
        <time>2018-11-08T13:53:20+01:00</time>
      </trkpt>
      <trkpt lat="44.9971" lon="4.68991">
        <ele>491</ele>
        <time>2018-11-08T13:53:29+01:00</time>
      </trkpt>
      <trkpt lat="44.9972" lon="4.6899">
        <ele>491</ele>
        <time>2018-11-08T13:53:37+01:00</time>
      </trkpt>
      <trkpt lat="44.99725" lon="4.68989">
        <ele>492</ele>
        <time>2018-11-08T13:53:45+01:00</time>
      </trkpt>
      <trkpt lat="44.99732" lon="4.68986">
        <ele>493</ele>
        <time>2018-11-08T13:53:53+01:00</time>
      </trkpt>
      <trkpt lat="44.99743" lon="4.68979">
        <ele>494</ele>
        <time>2018-11-08T13:54:02+01:00</time>
      </trkpt>
      <trkpt lat="44.99753" lon="4.68975">
        <ele>495</ele>
        <time>2018-11-08T13:54:09+01:00</time>
      </trkpt>
      <trkpt lat="44.99763" lon="4.68972">
        <ele>495</ele>
        <time>2018-11-08T13:54:17+01:00</time>
      </trkpt>
      <trkpt lat="44.99775" lon="4.68974">
        <ele>495</ele>
        <time>2018-11-08T13:54:26+01:00</time>
      </trkpt>
      <trkpt lat="44.99787" lon="4.68974">
        <ele>495</ele>
        <time>2018-11-08T13:54:37+01:00</time>
      </trkpt>
      <trkpt lat="44.99796" lon="4.68976">
        <ele>495</ele>
        <time>2018-11-08T13:54:45+01:00</time>
      </trkpt>
      <trkpt lat="44.99806" lon="4.68978">
        <ele>495</ele>
        <time>2018-11-08T13:54:54+01:00</time>
      </trkpt>
      <trkpt lat="44.99818" lon="4.6898">
        <ele>494</ele>
        <time>2018-11-08T13:55:03+01:00</time>
      </trkpt>
      <trkpt lat="44.99826" lon="4.68979">
        <ele>495</ele>
        <time>2018-11-08T13:55:10+01:00</time>
      </trkpt>
      <trkpt lat="44.99836" lon="4.68974">
        <ele>495</ele>
        <time>2018-11-08T13:55:18+01:00</time>
      </trkpt>
      <trkpt lat="44.99838" lon="4.68966">
        <ele>496</ele>
        <time>2018-11-08T13:55:23+01:00</time>
      </trkpt>
      <trkpt lat="44.9984" lon="4.68961">
        <ele>497</ele>
        <time>2018-11-08T13:55:26+01:00</time>
      </trkpt>
      <trkpt lat="44.99846" lon="4.68942">
        <ele>499</ele>
        <time>2018-11-08T13:55:36+01:00</time>
      </trkpt>
      <trkpt lat="44.99849" lon="4.68935">
        <ele>500</ele>
        <time>2018-11-08T13:55:40+01:00</time>
      </trkpt>
      <trkpt lat="44.99856" lon="4.68917">
        <ele>502</ele>
        <time>2018-11-08T13:55:50+01:00</time>
      </trkpt>
      <trkpt lat="44.99856" lon="4.68915">
        <ele>502</ele>
        <time>2018-11-08T13:55:52+01:00</time>
      </trkpt>
      <trkpt lat="44.99865" lon="4.68904">
        <ele>504</ele>
        <time>2018-11-08T13:56:02+01:00</time>
      </trkpt>
      <trkpt lat="44.99875" lon="4.689">
        <ele>504</ele>
        <time>2018-11-08T13:56:11+01:00</time>
      </trkpt>
      <trkpt lat="44.99876" lon="4.689">
        <ele>504</ele>
        <time>2018-11-08T13:56:12+01:00</time>
      </trkpt>
      <trkpt lat="44.99889" lon="4.68904">
        <ele>504</ele>
        <time>2018-11-08T13:56:23+01:00</time>
      </trkpt>
      <trkpt lat="44.99899" lon="4.68908">
        <ele>504</ele>
        <time>2018-11-08T13:56:32+01:00</time>
      </trkpt>
      <trkpt lat="44.99905" lon="4.6891">
        <ele>504</ele>
        <time>2018-11-08T13:56:37+01:00</time>
      </trkpt>
      <trkpt lat="44.99915" lon="4.68914">
        <ele>503</ele>
        <time>2018-11-08T13:56:46+01:00</time>
      </trkpt>
      <trkpt lat="44.99925" lon="4.68915">
        <ele>503</ele>
        <time>2018-11-08T13:56:55+01:00</time>
      </trkpt>
      <trkpt lat="44.99931" lon="4.68913">
        <ele>504</ele>
        <time>2018-11-08T13:57:01+01:00</time>
      </trkpt>
      <trkpt lat="44.99939" lon="4.68907">
        <ele>505</ele>
        <time>2018-11-08T13:57:09+01:00</time>
      </trkpt>
      <trkpt lat="44.99944" lon="4.68901">
        <ele>505</ele>
        <time>2018-11-08T13:57:16+01:00</time>
      </trkpt>
      <trkpt lat="44.99952" lon="4.68889">
        <ele>507</ele>
        <time>2018-11-08T13:57:23+01:00</time>
      </trkpt>
      <trkpt lat="44.99954" lon="4.68881">
        <ele>508</ele>
        <time>2018-11-08T13:57:27+01:00</time>
      </trkpt>
      <trkpt lat="44.99955" lon="4.68866">
        <ele>509</ele>
        <time>2018-11-08T13:57:36+01:00</time>
      </trkpt>
      <trkpt lat="44.99953" lon="4.68849">
        <ele>511</ele>
        <time>2018-11-08T13:57:44+01:00</time>
      </trkpt>
      <trkpt lat="44.99951" lon="4.68833">
        <ele>513</ele>
        <time>2018-11-08T13:57:53+01:00</time>
      </trkpt>
      <trkpt lat="44.99955" lon="4.68823">
        <ele>514</ele>
        <time>2018-11-08T13:58:03+01:00</time>
      </trkpt>
      <trkpt lat="44.99965" lon="4.68817">
        <ele>516</ele>
        <time>2018-11-08T13:58:12+01:00</time>
      </trkpt>
      <trkpt lat="44.99972" lon="4.68819">
        <ele>516</ele>
        <time>2018-11-08T13:58:19+01:00</time>
      </trkpt>
      <trkpt lat="44.9998" lon="4.68824">
        <ele>515</ele>
        <time>2018-11-08T13:58:27+01:00</time>
      </trkpt>
      <trkpt lat="44.99981" lon="4.68825">
        <ele>515</ele>
        <time>2018-11-08T13:58:28+01:00</time>
      </trkpt>
      <trkpt lat="44.99987" lon="4.68834">
        <ele>514</ele>
        <time>2018-11-08T13:58:36+01:00</time>
      </trkpt>
      <trkpt lat="44.99993" lon="4.68839">
        <ele>513</ele>
        <time>2018-11-08T13:58:43+01:00</time>
      </trkpt>
      <trkpt lat="44.99995" lon="4.68841">
        <ele>513</ele>
        <time>2018-11-08T13:58:45+01:00</time>
      </trkpt>
      <trkpt lat="45.00003" lon="4.68849">
        <ele>513</ele>
        <time>2018-11-08T13:58:53+01:00</time>
      </trkpt>
      <trkpt lat="45.00007" lon="4.68853">
        <ele>513</ele>
        <time>2018-11-08T13:58:56+01:00</time>
      </trkpt>
      <trkpt lat="45.00015" lon="4.68858">
        <ele>513</ele>
        <time>2018-11-08T13:59:05+01:00</time>
      </trkpt>
      <trkpt lat="45.00022" lon="4.68862">
        <ele>514</ele>
        <time>2018-11-08T13:59:13+01:00</time>
      </trkpt>
      <trkpt lat="45.0003" lon="4.68867">
        <ele>514</ele>
        <time>2018-11-08T13:59:22+01:00</time>
      </trkpt>
      <trkpt lat="45.0004" lon="4.68874">
        <ele>515</ele>
        <time>2018-11-08T13:59:31+01:00</time>
      </trkpt>
      <trkpt lat="45.00047" lon="4.68882">
        <ele>515</ele>
        <time>2018-11-08T13:59:39+01:00</time>
      </trkpt>
      <trkpt lat="45.00049" lon="4.68885">
        <ele>515</ele>
        <time>2018-11-08T13:59:47+01:00</time>
      </trkpt>
      <trkpt lat="45.00053" lon="4.68886">
        <ele>516</ele>
        <time>2018-11-08T13:59:57+01:00</time>
      </trkpt>
      <trkpt lat="45.00059" lon="4.68885">
        <ele>517</ele>
        <time>2018-11-08T14:00:06+01:00</time>
      </trkpt>
      <trkpt lat="45.00062" lon="4.68887">
        <ele>517</ele>
        <time>2018-11-08T14:00:17+01:00</time>
      </trkpt>
      <trkpt lat="45.00063" lon="4.68893">
        <ele>517</ele>
        <time>2018-11-08T14:00:25+01:00</time>
      </trkpt>
      <trkpt lat="45.00062" lon="4.68897">
        <ele>517</ele>
        <time>2018-11-08T14:00:28+01:00</time>
      </trkpt>
      <trkpt lat="45.0006" lon="4.68905">
        <ele>516</ele>
        <time>2018-11-08T14:00:34+01:00</time>
      </trkpt>
      <trkpt lat="45.00051" lon="4.6892">
        <ele>513</ele>
        <time>2018-11-08T14:00:44+01:00</time>
      </trkpt>
      <trkpt lat="45.00049" lon="4.68935">
        <ele>513</ele>
        <time>2018-11-08T14:00:53+01:00</time>
      </trkpt>
      <trkpt lat="45.00049" lon="4.68951">
        <ele>512</ele>
        <time>2018-11-08T14:01:01+01:00</time>
      </trkpt>
      <trkpt lat="45.00051" lon="4.68966">
        <ele>513</ele>
        <time>2018-11-08T14:01:09+01:00</time>
      </trkpt>
      <trkpt lat="45.00055" lon="4.68978">
        <ele>513</ele>
        <time>2018-11-08T14:01:17+01:00</time>
      </trkpt>
      <trkpt lat="45.00059" lon="4.68988">
        <ele>514</ele>
        <time>2018-11-08T14:01:24+01:00</time>
      </trkpt>
      <trkpt lat="45.0006" lon="4.68991">
        <ele>514</ele>
        <time>2018-11-08T14:01:26+01:00</time>
      </trkpt>
      <trkpt lat="45.00066" lon="4.69003">
        <ele>514</ele>
        <time>2018-11-08T14:01:35+01:00</time>
      </trkpt>
      <trkpt lat="45.00073" lon="4.69013">
        <ele>515</ele>
        <time>2018-11-08T14:01:44+01:00</time>
      </trkpt>
      <trkpt lat="45.00075" lon="4.69015">
        <ele>515</ele>
        <time>2018-11-08T14:01:53+01:00</time>
      </trkpt>
      <trkpt lat="45.00077" lon="4.69018">
        <ele>516</ele>
        <time>2018-11-08T14:02:06+01:00</time>
      </trkpt>
      <trkpt lat="45.00079" lon="4.69026">
        <ele>515</ele>
        <time>2018-11-08T14:02:14+01:00</time>
      </trkpt>
      <trkpt lat="45.00084" lon="4.69034">
        <ele>516</ele>
        <time>2018-11-08T14:02:22+01:00</time>
      </trkpt>
      <trkpt lat="45.0009" lon="4.69044">
        <ele>516</ele>
        <time>2018-11-08T14:02:30+01:00</time>
      </trkpt>
      <trkpt lat="45.00097" lon="4.69054">
        <ele>516</ele>
        <time>2018-11-08T14:02:39+01:00</time>
      </trkpt>
      <trkpt lat="45.00104" lon="4.69062">
        <ele>516</ele>
        <time>2018-11-08T14:02:48+01:00</time>
      </trkpt>
      <trkpt lat="45.00113" lon="4.69067">
        <ele>517</ele>
        <time>2018-11-08T14:02:57+01:00</time>
      </trkpt>
      <trkpt lat="45.00114" lon="4.69067">
        <ele>517</ele>
        <time>2018-11-08T14:02:58+01:00</time>
      </trkpt>
      <trkpt lat="45.0012" lon="4.69067">
        <ele>517</ele>
        <time>2018-11-08T14:03:03+01:00</time>
      </trkpt>
      <trkpt lat="45.00124" lon="4.69065">
        <ele>518</ele>
        <time>2018-11-08T14:03:08+01:00</time>
      </trkpt>
      <trkpt lat="45.00135" lon="4.69063">
        <ele>519</ele>
        <time>2018-11-08T14:03:16+01:00</time>
      </trkpt>
      <trkpt lat="45.00144" lon="4.69065">
        <ele>520</ele>
        <time>2018-11-08T14:03:24+01:00</time>
      </trkpt>
      <trkpt lat="45.00148" lon="4.69068">
        <ele>520</ele>
        <time>2018-11-08T14:03:28+01:00</time>
      </trkpt>
      <trkpt lat="45.00159" lon="4.69066">
        <ele>522</ele>
        <time>2018-11-08T14:03:37+01:00</time>
      </trkpt>
      <trkpt lat="45.00161" lon="4.69066">
        <ele>522</ele>
        <time>2018-11-08T14:03:45+01:00</time>
      </trkpt>
      <trkpt lat="45.00162" lon="4.69065">
        <ele>522</ele>
        <time>2018-11-08T14:04:01+01:00</time>
      </trkpt>
      <trkpt lat="45.00162" lon="4.69064">
        <ele>522</ele>
        <time>2018-11-08T14:04:14+01:00</time>
      </trkpt>
      <trkpt lat="45.00162" lon="4.69063">
        <ele>522</ele>
        <time>2018-11-08T14:04:28+01:00</time>
      </trkpt>
      <trkpt lat="45.00162" lon="4.69062">
        <ele>522</ele>
        <time>2018-11-08T14:04:40+01:00</time>
      </trkpt>
      <trkpt lat="45.0016" lon="4.69062">
        <ele>522</ele>
        <time>2018-11-08T14:04:48+01:00</time>
      </trkpt>
      <trkpt lat="45.00162" lon="4.69064">
        <ele>522</ele>
        <time>2018-11-08T14:05:01+01:00</time>
      </trkpt>
      <trkpt lat="45.00163" lon="4.69062">
        <ele>523</ele>
        <time>2018-11-08T14:05:08+01:00</time>
      </trkpt>
      <trkpt lat="45.00161" lon="4.6906">
        <ele>523</ele>
        <time>2018-11-08T14:05:11+01:00</time>
      </trkpt>
      <trkpt lat="45.00161" lon="4.69053">
        <ele>523</ele>
        <time>2018-11-08T14:05:17+01:00</time>
      </trkpt>
      <trkpt lat="45.00161" lon="4.69049">
        <ele>524</ele>
        <time>2018-11-08T14:05:20+01:00</time>
      </trkpt>
      <trkpt lat="45.00159" lon="4.69037">
        <ele>525</ele>
        <time>2018-11-08T14:05:29+01:00</time>
      </trkpt>
      <trkpt lat="45.00159" lon="4.69022">
        <ele>526</ele>
        <time>2018-11-08T14:05:38+01:00</time>
      </trkpt>
      <trkpt lat="45.00158" lon="4.69005">
        <ele>527</ele>
        <time>2018-11-08T14:05:48+01:00</time>
      </trkpt>
      <trkpt lat="45.00156" lon="4.68995">
        <ele>528</ele>
        <time>2018-11-08T14:05:55+01:00</time>
      </trkpt>
      <trkpt lat="45.00156" lon="4.68994">
        <ele>528</ele>
        <time>2018-11-08T14:05:56+01:00</time>
      </trkpt>
      <trkpt lat="45.00152" lon="4.6898">
        <ele>528</ele>
        <time>2018-11-08T14:06:06+01:00</time>
      </trkpt>
      <trkpt lat="45.00148" lon="4.68966">
        <ele>528</ele>
        <time>2018-11-08T14:06:15+01:00</time>
      </trkpt>
      <trkpt lat="45.00145" lon="4.68953">
        <ele>528</ele>
        <time>2018-11-08T14:06:22+01:00</time>
      </trkpt>
      <trkpt lat="45.0014" lon="4.68939">
        <ele>527</ele>
        <time>2018-11-08T14:06:31+01:00</time>
      </trkpt>
      <trkpt lat="45.00134" lon="4.68919">
        <ele>527</ele>
        <time>2018-11-08T14:06:43+01:00</time>
      </trkpt>
      <trkpt lat="45.00131" lon="4.68906">
        <ele>527</ele>
        <time>2018-11-08T14:06:51+01:00</time>
      </trkpt>
      <trkpt lat="45.00135" lon="4.68896">
        <ele>528</ele>
        <time>2018-11-08T14:06:57+01:00</time>
      </trkpt>
      <trkpt lat="45.00139" lon="4.68884">
        <ele>529</ele>
        <time>2018-11-08T14:07:05+01:00</time>
      </trkpt>
      <trkpt lat="45.00146" lon="4.68866">
        <ele>530</ele>
        <time>2018-11-08T14:07:16+01:00</time>
      </trkpt>
      <trkpt lat="45.00146" lon="4.6885">
        <ele>531</ele>
        <time>2018-11-08T14:07:25+01:00</time>
      </trkpt>
      <trkpt lat="45.00149" lon="4.68835">
        <ele>531</ele>
        <time>2018-11-08T14:07:34+01:00</time>
      </trkpt>
      <trkpt lat="45.00153" lon="4.68824">
        <ele>533</ele>
        <time>2018-11-08T14:07:42+01:00</time>
      </trkpt>
      <trkpt lat="45.00157" lon="4.68821">
        <ele>534</ele>
        <time>2018-11-08T14:07:48+01:00</time>
      </trkpt>
      <trkpt lat="45.00167" lon="4.68819">
        <ele>535</ele>
        <time>2018-11-08T14:07:57+01:00</time>
      </trkpt>
      <trkpt lat="45.00176" lon="4.68822">
        <ele>537</ele>
        <time>2018-11-08T14:08:06+01:00</time>
      </trkpt>
      <trkpt lat="45.00187" lon="4.68827">
        <ele>538</ele>
        <time>2018-11-08T14:08:15+01:00</time>
      </trkpt>
      <trkpt lat="45.00197" lon="4.68832">
        <ele>539</ele>
        <time>2018-11-08T14:08:25+01:00</time>
      </trkpt>
      <trkpt lat="45.00205" lon="4.6884">
        <ele>540</ele>
        <time>2018-11-08T14:08:34+01:00</time>
      </trkpt>
      <trkpt lat="45.00212" lon="4.68844">
        <ele>540</ele>
        <time>2018-11-08T14:08:40+01:00</time>
      </trkpt>
      <trkpt lat="45.00218" lon="4.68849">
        <ele>541</ele>
        <time>2018-11-08T14:08:47+01:00</time>
      </trkpt>
      <trkpt lat="45.00226" lon="4.68855">
        <ele>542</ele>
        <time>2018-11-08T14:08:55+01:00</time>
      </trkpt>
      <trkpt lat="45.00231" lon="4.68859">
        <ele>542</ele>
        <time>2018-11-08T14:09:00+01:00</time>
      </trkpt>
      <trkpt lat="45.00237" lon="4.68863">
        <ele>543</ele>
        <time>2018-11-08T14:09:05+01:00</time>
      </trkpt>
      <trkpt lat="45.00245" lon="4.68869">
        <ele>543</ele>
        <time>2018-11-08T14:09:14+01:00</time>
      </trkpt>
      <trkpt lat="45.00252" lon="4.68873">
        <ele>544</ele>
        <time>2018-11-08T14:09:20+01:00</time>
      </trkpt>
      <trkpt lat="45.0026" lon="4.68879">
        <ele>545</ele>
        <time>2018-11-08T14:09:29+01:00</time>
      </trkpt>
      <trkpt lat="45.00266" lon="4.68884">
        <ele>545</ele>
        <time>2018-11-08T14:09:35+01:00</time>
      </trkpt>
      <trkpt lat="45.00275" lon="4.6889">
        <ele>546</ele>
        <time>2018-11-08T14:09:43+01:00</time>
      </trkpt>
      <trkpt lat="45.00277" lon="4.68892">
        <ele>546</ele>
        <time>2018-11-08T14:09:51+01:00</time>
      </trkpt>
      <trkpt lat="45.0028" lon="4.68897">
        <ele>546</ele>
        <time>2018-11-08T14:10:02+01:00</time>
      </trkpt>
      <trkpt lat="45.00285" lon="4.689">
        <ele>547</ele>
        <time>2018-11-08T14:10:07+01:00</time>
      </trkpt>
      <trkpt lat="45.00287" lon="4.68902">
        <ele>547</ele>
        <time>2018-11-08T14:10:09+01:00</time>
      </trkpt>
      <trkpt lat="45.00295" lon="4.6891">
        <ele>547</ele>
        <time>2018-11-08T14:10:18+01:00</time>
      </trkpt>
      <trkpt lat="45.00296" lon="4.68911">
        <ele>547</ele>
        <time>2018-11-08T14:10:20+01:00</time>
      </trkpt>
      <trkpt lat="45.00298" lon="4.68912">
        <ele>547</ele>
        <time>2018-11-08T14:10:22+01:00</time>
      </trkpt>
      <trkpt lat="45.00308" lon="4.68917">
        <ele>548</ele>
        <time>2018-11-08T14:10:32+01:00</time>
      </trkpt>
      <trkpt lat="45.00314" lon="4.68921">
        <ele>548</ele>
        <time>2018-11-08T14:10:38+01:00</time>
      </trkpt>
      <trkpt lat="45.00323" lon="4.68927">
        <ele>548</ele>
        <time>2018-11-08T14:10:47+01:00</time>
      </trkpt>
      <trkpt lat="45.00328" lon="4.68928">
        <ele>549</ele>
        <time>2018-11-08T14:10:51+01:00</time>
      </trkpt>
      <trkpt lat="45.00332" lon="4.68932">
        <ele>549</ele>
        <time>2018-11-08T14:10:55+01:00</time>
      </trkpt>
      <trkpt lat="45.00333" lon="4.68934">
        <ele>549</ele>
        <time>2018-11-08T14:10:57+01:00</time>
      </trkpt>
      <trkpt lat="45.00339" lon="4.68941">
        <ele>548</ele>
        <time>2018-11-08T14:11:04+01:00</time>
      </trkpt>
      <trkpt lat="45.00344" lon="4.68947">
        <ele>548</ele>
        <time>2018-11-08T14:11:11+01:00</time>
      </trkpt>
      <trkpt lat="45.00352" lon="4.68956">
        <ele>548</ele>
        <time>2018-11-08T14:11:21+01:00</time>
      </trkpt>
      <trkpt lat="45.00357" lon="4.68961">
        <ele>548</ele>
        <time>2018-11-08T14:11:28+01:00</time>
      </trkpt>
      <trkpt lat="45.0036" lon="4.68966">
        <ele>547</ele>
        <time>2018-11-08T14:11:32+01:00</time>
      </trkpt>
      <trkpt lat="45.00369" lon="4.68976">
        <ele>547</ele>
        <time>2018-11-08T14:11:41+01:00</time>
      </trkpt>
      <trkpt lat="45.0037" lon="4.68977">
        <ele>547</ele>
        <time>2018-11-08T14:11:42+01:00</time>
      </trkpt>
      <trkpt lat="45.00379" lon="4.68986">
        <ele>547</ele>
        <time>2018-11-08T14:11:51+01:00</time>
      </trkpt>
      <trkpt lat="45.00383" lon="4.68988">
        <ele>547</ele>
        <time>2018-11-08T14:11:54+01:00</time>
      </trkpt>
      <trkpt lat="45.00395" lon="4.68998">
        <ele>546</ele>
        <time>2018-11-08T14:12:04+01:00</time>
      </trkpt>
      <trkpt lat="45.00405" lon="4.69003">
        <ele>547</ele>
        <time>2018-11-08T14:12:12+01:00</time>
      </trkpt>
      <trkpt lat="45.00416" lon="4.69008">
        <ele>547</ele>
        <time>2018-11-08T14:12:21+01:00</time>
      </trkpt>
      <trkpt lat="45.00427" lon="4.69016">
        <ele>547</ele>
        <time>2018-11-08T14:12:31+01:00</time>
      </trkpt>
      <trkpt lat="45.00435" lon="4.69022">
        <ele>547</ele>
        <time>2018-11-08T14:12:39+01:00</time>
      </trkpt>
      <trkpt lat="45.00446" lon="4.69032">
        <ele>547</ele>
        <time>2018-11-08T14:12:49+01:00</time>
      </trkpt>
      <trkpt lat="45.00455" lon="4.6904">
        <ele>547</ele>
        <time>2018-11-08T14:12:58+01:00</time>
      </trkpt>
      <trkpt lat="45.00463" lon="4.69048">
        <ele>547</ele>
        <time>2018-11-08T14:13:06+01:00</time>
      </trkpt>
      <trkpt lat="45.00471" lon="4.69056">
        <ele>546</ele>
        <time>2018-11-08T14:13:15+01:00</time>
      </trkpt>
      <trkpt lat="45.00479" lon="4.69065">
        <ele>546</ele>
        <time>2018-11-08T14:13:23+01:00</time>
      </trkpt>
      <trkpt lat="45.00485" lon="4.69072">
        <ele>546</ele>
        <time>2018-11-08T14:13:30+01:00</time>
      </trkpt>
      <trkpt lat="45.00493" lon="4.6908">
        <ele>546</ele>
        <time>2018-11-08T14:13:38+01:00</time>
      </trkpt>
      <trkpt lat="45.005" lon="4.69086">
        <ele>546</ele>
        <time>2018-11-08T14:13:45+01:00</time>
      </trkpt>
      <trkpt lat="45.0051" lon="4.69091">
        <ele>546</ele>
        <time>2018-11-08T14:13:54+01:00</time>
      </trkpt>
      <trkpt lat="45.00511" lon="4.69091">
        <ele>546</ele>
        <time>2018-11-08T14:13:55+01:00</time>
      </trkpt>
      <trkpt lat="45.00524" lon="4.69097">
        <ele>546</ele>
        <time>2018-11-08T14:14:05+01:00</time>
      </trkpt>
      <trkpt lat="45.00527" lon="4.69099">
        <ele>546</ele>
        <time>2018-11-08T14:14:08+01:00</time>
      </trkpt>
      <trkpt lat="45.00538" lon="4.69105">
        <ele>546</ele>
        <time>2018-11-08T14:14:17+01:00</time>
      </trkpt>
      <trkpt lat="45.00549" lon="4.6911">
        <ele>546</ele>
        <time>2018-11-08T14:14:27+01:00</time>
      </trkpt>
      <trkpt lat="45.00556" lon="4.69114">
        <ele>546</ele>
        <time>2018-11-08T14:14:34+01:00</time>
      </trkpt>
      <trkpt lat="45.00565" lon="4.69122">
        <ele>546</ele>
        <time>2018-11-08T14:14:42+01:00</time>
      </trkpt>
      <trkpt lat="45.00571" lon="4.69126">
        <ele>546</ele>
        <time>2018-11-08T14:14:48+01:00</time>
      </trkpt>
      <trkpt lat="45.0058" lon="4.69133">
        <ele>547</ele>
        <time>2018-11-08T14:14:56+01:00</time>
      </trkpt>
      <trkpt lat="45.00586" lon="4.69136">
        <ele>547</ele>
        <time>2018-11-08T14:15:03+01:00</time>
      </trkpt>
      <trkpt lat="45.00595" lon="4.69142">
        <ele>547</ele>
        <time>2018-11-08T14:15:10+01:00</time>
      </trkpt>
      <trkpt lat="45.00602" lon="4.69147">
        <ele>547</ele>
        <time>2018-11-08T14:15:19+01:00</time>
      </trkpt>
      <trkpt lat="45.00604" lon="4.6915">
        <ele>547</ele>
        <time>2018-11-08T14:15:27+01:00</time>
      </trkpt>
      <trkpt lat="45.00605" lon="4.6915">
        <ele>547</ele>
        <time>2018-11-08T14:15:35+01:00</time>
      </trkpt>
      <trkpt lat="45.00605" lon="4.6915">
        <ele>547</ele>
        <time>2018-11-08T14:15:46+01:00</time>
      </trkpt>
      <trkpt lat="45.00607" lon="4.6915">
        <ele>547</ele>
        <time>2018-11-08T14:15:59+01:00</time>
      </trkpt>
      <trkpt lat="45.00608" lon="4.6915">
        <ele>547</ele>
        <time>2018-11-08T14:16:08+01:00</time>
      </trkpt>
      <trkpt lat="45.00605" lon="4.69148">
        <ele>547</ele>
        <time>2018-11-08T14:16:24+01:00</time>
      </trkpt>
      <trkpt lat="45.00611" lon="4.69151">
        <ele>547</ele>
        <time>2018-11-08T14:16:33+01:00</time>
      </trkpt>
      <trkpt lat="45.00619" lon="4.69156">
        <ele>547</ele>
        <time>2018-11-08T14:16:43+01:00</time>
      </trkpt>
      <trkpt lat="45.00629" lon="4.69162">
        <ele>547</ele>
        <time>2018-11-08T14:16:53+01:00</time>
      </trkpt>
      <trkpt lat="45.00642" lon="4.69172">
        <ele>547</ele>
        <time>2018-11-08T14:17:03+01:00</time>
      </trkpt>
      <trkpt lat="45.0065" lon="4.69176">
        <ele>547</ele>
        <time>2018-11-08T14:17:11+01:00</time>
      </trkpt>
      <trkpt lat="45.00659" lon="4.6918">
        <ele>547</ele>
        <time>2018-11-08T14:17:18+01:00</time>
      </trkpt>
      <trkpt lat="45.00672" lon="4.69185">
        <ele>546</ele>
        <time>2018-11-08T14:17:29+01:00</time>
      </trkpt>
      <trkpt lat="45.00678" lon="4.69185">
        <ele>546</ele>
        <time>2018-11-08T14:17:34+01:00</time>
      </trkpt>
      <trkpt lat="45.00685" lon="4.69185">
        <ele>546</ele>
        <time>2018-11-08T14:17:40+01:00</time>
      </trkpt>
      <trkpt lat="45.00693" lon="4.69187">
        <ele>545</ele>
        <time>2018-11-08T14:17:47+01:00</time>
      </trkpt>
      <trkpt lat="45.00702" lon="4.69188">
        <ele>545</ele>
        <time>2018-11-08T14:17:55+01:00</time>
      </trkpt>
      <trkpt lat="45.00708" lon="4.69191">
        <ele>545</ele>
        <time>2018-11-08T14:18:04+01:00</time>
      </trkpt>
      <trkpt lat="45.00716" lon="4.69197">
        <ele>544</ele>
        <time>2018-11-08T14:18:12+01:00</time>
      </trkpt>
      <trkpt lat="45.00717" lon="4.69198">
        <ele>544</ele>
        <time>2018-11-08T14:18:24+01:00</time>
      </trkpt>
      <trkpt lat="45.0072" lon="4.69199">
        <ele>543</ele>
        <time>2018-11-08T14:18:43+01:00</time>
      </trkpt>
      <trkpt lat="45.0072" lon="4.69198">
        <ele>543</ele>
        <time>2018-11-08T14:18:57+01:00</time>
      </trkpt>
      <trkpt lat="45.00719" lon="4.692">
        <ele>543</ele>
        <time>2018-11-08T14:19:08+01:00</time>
      </trkpt>
      <trkpt lat="45.00719" lon="4.69192">
        <ele>544</ele>
        <time>2018-11-08T14:19:18+01:00</time>
      </trkpt>
      <trkpt lat="45.00718" lon="4.69191">
        <ele>544</ele>
        <time>2018-11-08T14:19:31+01:00</time>
      </trkpt>
      <trkpt lat="45.00719" lon="4.6919">
        <ele>544</ele>
        <time>2018-11-08T14:19:44+01:00</time>
      </trkpt>
      <trkpt lat="45.00719" lon="4.6919">
        <ele>544</ele>
        <time>2018-11-08T14:20:01+01:00</time>
      </trkpt>
      <trkpt lat="45.00718" lon="4.6919">
        <ele>544</ele>
        <time>2018-11-08T14:20:18+01:00</time>
      </trkpt>
      <trkpt lat="45.00716" lon="4.69188">
        <ele>545</ele>
        <time>2018-11-08T14:20:31+01:00</time>
      </trkpt>
      <trkpt lat="45.00713" lon="4.69189">
        <ele>545</ele>
        <time>2018-11-08T14:20:39+01:00</time>
      </trkpt>
      <trkpt lat="45.00713" lon="4.69191">
        <ele>544</ele>
        <time>2018-11-08T14:20:48+01:00</time>
      </trkpt>
      <trkpt lat="45.00713" lon="4.69192">
        <ele>544</ele>
        <time>2018-11-08T14:20:50+01:00</time>
      </trkpt>
      <trkpt lat="45.00714" lon="4.69196">
        <ele>544</ele>
        <time>2018-11-08T14:21:09+01:00</time>
      </trkpt>
      <trkpt lat="45.00714" lon="4.69196">
        <ele>544</ele>
        <time>2018-11-08T14:21:30+01:00</time>
      </trkpt>
      <trkpt lat="45.00714" lon="4.69195">
        <ele>544</ele>
        <time>2018-11-08T14:21:32+01:00</time>
      </trkpt>
      <trkpt lat="45.00713" lon="4.69192">
        <ele>544</ele>
        <time>2018-11-08T14:21:44+01:00</time>
      </trkpt>
      <trkpt lat="45.00714" lon="4.69192">
        <ele>544</ele>
        <time>2018-11-08T14:21:55+01:00</time>
      </trkpt>
      <trkpt lat="45.00714" lon="4.69191">
        <ele>544</ele>
        <time>2018-11-08T14:22:11+01:00</time>
      </trkpt>
      <trkpt lat="45.00714" lon="4.69191">
        <ele>544</ele>
        <time>2018-11-08T14:22:21+01:00</time>
      </trkpt>
      <trkpt lat="45.00713" lon="4.69191">
        <ele>544</ele>
        <time>2018-11-08T14:22:37+01:00</time>
      </trkpt>
      <trkpt lat="45.00713" lon="4.69189">
        <ele>545</ele>
        <time>2018-11-08T14:22:50+01:00</time>
      </trkpt>
      <trkpt lat="45.00712" lon="4.69188">
        <ele>545</ele>
        <time>2018-11-08T14:23:08+01:00</time>
      </trkpt>
      <trkpt lat="45.00712" lon="4.69187">
        <ele>545</ele>
        <time>2018-11-08T14:23:22+01:00</time>
      </trkpt>
      <trkpt lat="45.00712" lon="4.69189">
        <ele>545</ele>
        <time>2018-11-08T14:23:37+01:00</time>
      </trkpt>
      <trkpt lat="45.00712" lon="4.6919">
        <ele>545</ele>
        <time>2018-11-08T14:23:48+01:00</time>
      </trkpt>
      <trkpt lat="45.00712" lon="4.69195">
        <ele>544</ele>
        <time>2018-11-08T14:24:02+01:00</time>
      </trkpt>
      <trkpt lat="45.00716" lon="4.69197">
        <ele>544</ele>
        <time>2018-11-08T14:24:12+01:00</time>
      </trkpt>
      <trkpt lat="45.00713" lon="4.69201">
        <ele>543</ele>
        <time>2018-11-08T14:24:24+01:00</time>
      </trkpt>
      <trkpt lat="45.00712" lon="4.69203">
        <ele>543</ele>
        <time>2018-11-08T14:24:27+01:00</time>
      </trkpt>
      <trkpt lat="45.00712" lon="4.69214">
        <ele>542</ele>
        <time>2018-11-08T14:24:35+01:00</time>
      </trkpt>
      <trkpt lat="45.00712" lon="4.69225">
        <ele>541</ele>
        <time>2018-11-08T14:24:43+01:00</time>
      </trkpt>
      <trkpt lat="45.00711" lon="4.69238">
        <ele>540</ele>
        <time>2018-11-08T14:24:52+01:00</time>
      </trkpt>
      <trkpt lat="45.00711" lon="4.69249">
        <ele>538</ele>
        <time>2018-11-08T14:25:01+01:00</time>
      </trkpt>
      <trkpt lat="45.00712" lon="4.6926">
        <ele>537</ele>
        <time>2018-11-08T14:25:10+01:00</time>
      </trkpt>
      <trkpt lat="45.00712" lon="4.69277">
        <ele>535</ele>
        <time>2018-11-08T14:25:20+01:00</time>
      </trkpt>
      <trkpt lat="45.00709" lon="4.69287">
        <ele>534</ele>
        <time>2018-11-08T14:25:28+01:00</time>
      </trkpt>
      <trkpt lat="45.00708" lon="4.69302">
        <ele>532</ele>
        <time>2018-11-08T14:25:36+01:00</time>
      </trkpt>
      <trkpt lat="45.00708" lon="4.69314">
        <ele>530</ele>
        <time>2018-11-08T14:25:43+01:00</time>
      </trkpt>
      <trkpt lat="45.00709" lon="4.69319">
        <ele>530</ele>
        <time>2018-11-08T14:25:46+01:00</time>
      </trkpt>
      <trkpt lat="45.00711" lon="4.69329">
        <ele>529</ele>
        <time>2018-11-08T14:25:55+01:00</time>
      </trkpt>
      <trkpt lat="45.00713" lon="4.69342">
        <ele>527</ele>
        <time>2018-11-08T14:26:04+01:00</time>
      </trkpt>
      <trkpt lat="45.00714" lon="4.69353">
        <ele>526</ele>
        <time>2018-11-08T14:26:10+01:00</time>
      </trkpt>
      <trkpt lat="45.00717" lon="4.69369">
        <ele>525</ele>
        <time>2018-11-08T14:26:19+01:00</time>
      </trkpt>
      <trkpt lat="45.00718" lon="4.69376">
        <ele>525</ele>
        <time>2018-11-08T14:26:23+01:00</time>
      </trkpt>
      <trkpt lat="45.00719" lon="4.69394">
        <ele>523</ele>
        <time>2018-11-08T14:26:33+01:00</time>
      </trkpt>
      <trkpt lat="45.00722" lon="4.69412">
        <ele>522</ele>
        <time>2018-11-08T14:26:43+01:00</time>
      </trkpt>
      <trkpt lat="45.00723" lon="4.69427">
        <ele>521</ele>
        <time>2018-11-08T14:26:52+01:00</time>
      </trkpt>
      <trkpt lat="45.00724" lon="4.69441">
        <ele>520</ele>
        <time>2018-11-08T14:27:01+01:00</time>
      </trkpt>
      <trkpt lat="45.00725" lon="4.69452">
        <ele>520</ele>
        <time>2018-11-08T14:27:08+01:00</time>
      </trkpt>
      <trkpt lat="45.00726" lon="4.69464">
        <ele>519</ele>
        <time>2018-11-08T14:27:16+01:00</time>
      </trkpt>
      <trkpt lat="45.00727" lon="4.69477">
        <ele>519</ele>
        <time>2018-11-08T14:27:24+01:00</time>
      </trkpt>
      <trkpt lat="45.00728" lon="4.69489">
        <ele>518</ele>
        <time>2018-11-08T14:27:32+01:00</time>
      </trkpt>
      <trkpt lat="45.00729" lon="4.69503">
        <ele>517</ele>
        <time>2018-11-08T14:27:41+01:00</time>
      </trkpt>
      <trkpt lat="45.00731" lon="4.6952">
        <ele>516</ele>
        <time>2018-11-08T14:27:52+01:00</time>
      </trkpt>
      <trkpt lat="45.00732" lon="4.69533">
        <ele>516</ele>
        <time>2018-11-08T14:28:00+01:00</time>
      </trkpt>
      <trkpt lat="45.00734" lon="4.69547">
        <ele>515</ele>
        <time>2018-11-08T14:28:08+01:00</time>
      </trkpt>
      <trkpt lat="45.00735" lon="4.69563">
        <ele>514</ele>
        <time>2018-11-08T14:28:18+01:00</time>
      </trkpt>
      <trkpt lat="45.00736" lon="4.6958">
        <ele>514</ele>
        <time>2018-11-08T14:28:28+01:00</time>
      </trkpt>
      <trkpt lat="45.00737" lon="4.69598">
        <ele>513</ele>
        <time>2018-11-08T14:28:38+01:00</time>
      </trkpt>
      <trkpt lat="45.00738" lon="4.69613">
        <ele>512</ele>
        <time>2018-11-08T14:28:46+01:00</time>
      </trkpt>
      <trkpt lat="45.0074" lon="4.69635">
        <ele>511</ele>
        <time>2018-11-08T14:28:59+01:00</time>
      </trkpt>
      <trkpt lat="45.00741" lon="4.69651">
        <ele>510</ele>
        <time>2018-11-08T14:29:08+01:00</time>
      </trkpt>
      <trkpt lat="45.00743" lon="4.69668">
        <ele>509</ele>
        <time>2018-11-08T14:29:18+01:00</time>
      </trkpt>
      <trkpt lat="45.00746" lon="4.6968">
        <ele>508</ele>
        <time>2018-11-08T14:29:26+01:00</time>
      </trkpt>
      <trkpt lat="45.00754" lon="4.69692">
        <ele>507</ele>
        <time>2018-11-08T14:29:36+01:00</time>
      </trkpt>
      <trkpt lat="45.00761" lon="4.69702">
        <ele>506</ele>
        <time>2018-11-08T14:29:45+01:00</time>
      </trkpt>
      <trkpt lat="45.00769" lon="4.69711">
        <ele>506</ele>
        <time>2018-11-08T14:29:54+01:00</time>
      </trkpt>
      <trkpt lat="45.00777" lon="4.69717">
        <ele>505</ele>
        <time>2018-11-08T14:30:01+01:00</time>
      </trkpt>
      <trkpt lat="45.00779" lon="4.69718">
        <ele>505</ele>
        <time>2018-11-08T14:30:03+01:00</time>
      </trkpt>
      <trkpt lat="45.00782" lon="4.69723">
        <ele>505</ele>
        <time>2018-11-08T14:30:07+01:00</time>
      </trkpt>
      <trkpt lat="45.00791" lon="4.69733">
        <ele>504</ele>
        <time>2018-11-08T14:30:18+01:00</time>
      </trkpt>
      <trkpt lat="45.00794" lon="4.69736">
        <ele>504</ele>
        <time>2018-11-08T14:30:25+01:00</time>
      </trkpt>
      <trkpt lat="45.00798" lon="4.69738">
        <ele>504</ele>
        <time>2018-11-08T14:30:33+01:00</time>
      </trkpt>
      <trkpt lat="45.00801" lon="4.69739">
        <ele>504</ele>
        <time>2018-11-08T14:30:47+01:00</time>
      </trkpt>
      <trkpt lat="45.00804" lon="4.69741">
        <ele>504</ele>
        <time>2018-11-08T14:30:54+01:00</time>
      </trkpt>
      <trkpt lat="45.00803" lon="4.69742">
        <ele>504</ele>
        <time>2018-11-08T14:31:01+01:00</time>
      </trkpt>
      <trkpt lat="45.00807" lon="4.69752">
        <ele>503</ele>
        <time>2018-11-08T14:31:09+01:00</time>
      </trkpt>
      <trkpt lat="45.00812" lon="4.69757">
        <ele>503</ele>
        <time>2018-11-08T14:31:15+01:00</time>
      </trkpt>
      <trkpt lat="45.00813" lon="4.69758">
        <ele>503</ele>
        <time>2018-11-08T14:31:17+01:00</time>
      </trkpt>
      <trkpt lat="45.00822" lon="4.69767">
        <ele>503</ele>
        <time>2018-11-08T14:31:27+01:00</time>
      </trkpt>
      <trkpt lat="45.00827" lon="4.69775">
        <ele>503</ele>
        <time>2018-11-08T14:31:34+01:00</time>
      </trkpt>
      <trkpt lat="45.00837" lon="4.69785">
        <ele>503</ele>
        <time>2018-11-08T14:31:45+01:00</time>
      </trkpt>
      <trkpt lat="45.00845" lon="4.69796">
        <ele>503</ele>
        <time>2018-11-08T14:31:55+01:00</time>
      </trkpt>
      <trkpt lat="45.00846" lon="4.69803">
        <ele>503</ele>
        <time>2018-11-08T14:32:02+01:00</time>
      </trkpt>
      <trkpt lat="45.00852" lon="4.69812">
        <ele>504</ele>
        <time>2018-11-08T14:32:11+01:00</time>
      </trkpt>
      <trkpt lat="45.00855" lon="4.69821">
        <ele>504</ele>
        <time>2018-11-08T14:32:19+01:00</time>
      </trkpt>
      <trkpt lat="45.00855" lon="4.69827">
        <ele>504</ele>
        <time>2018-11-08T14:32:22+01:00</time>
      </trkpt>
      <trkpt lat="45.00859" lon="4.69839">
        <ele>504</ele>
        <time>2018-11-08T14:32:30+01:00</time>
      </trkpt>
      <trkpt lat="45.00864" lon="4.69852">
        <ele>504</ele>
        <time>2018-11-08T14:32:39+01:00</time>
      </trkpt>
      <trkpt lat="45.00871" lon="4.69867">
        <ele>504</ele>
        <time>2018-11-08T14:32:49+01:00</time>
      </trkpt>
      <trkpt lat="45.00874" lon="4.69873">
        <ele>504</ele>
        <time>2018-11-08T14:32:53+01:00</time>
      </trkpt>
      <trkpt lat="45.0088" lon="4.69886">
        <ele>505</ele>
        <time>2018-11-08T14:33:02+01:00</time>
      </trkpt>
      <trkpt lat="45.00884" lon="4.69892">
        <ele>505</ele>
        <time>2018-11-08T14:33:11+01:00</time>
      </trkpt>
      <trkpt lat="45.00884" lon="4.6989">
        <ele>505</ele>
        <time>2018-11-08T14:33:21+01:00</time>
      </trkpt>
      <trkpt lat="45.00886" lon="4.69893">
        <ele>505</ele>
        <time>2018-11-08T14:33:30+01:00</time>
      </trkpt>
      <trkpt lat="45.0089" lon="4.69905">
        <ele>505</ele>
        <time>2018-11-08T14:33:39+01:00</time>
      </trkpt>
      <trkpt lat="45.00893" lon="4.69911">
        <ele>505</ele>
        <time>2018-11-08T14:33:45+01:00</time>
      </trkpt>
      <trkpt lat="45.00893" lon="4.69915">
        <ele>505</ele>
        <time>2018-11-08T14:33:48+01:00</time>
      </trkpt>
      <trkpt lat="45.00899" lon="4.69924">
        <ele>505</ele>
        <time>2018-11-08T14:33:57+01:00</time>
      </trkpt>
      <trkpt lat="45.00905" lon="4.69936">
        <ele>506</ele>
        <time>2018-11-08T14:34:06+01:00</time>
      </trkpt>
      <trkpt lat="45.00913" lon="4.6995">
        <ele>506</ele>
        <time>2018-11-08T14:34:16+01:00</time>
      </trkpt>
      <trkpt lat="45.00921" lon="4.69962">
        <ele>506</ele>
        <time>2018-11-08T14:34:25+01:00</time>
      </trkpt>
      <trkpt lat="45.00928" lon="4.69974">
        <ele>506</ele>
        <time>2018-11-08T14:34:34+01:00</time>
      </trkpt>
      <trkpt lat="45.00936" lon="4.69985">
        <ele>507</ele>
        <time>2018-11-08T14:34:43+01:00</time>
      </trkpt>
      <trkpt lat="45.00937" lon="4.69991">
        <ele>507</ele>
        <time>2018-11-08T14:34:50+01:00</time>
      </trkpt>
      <trkpt lat="45.00933" lon="4.69987">
        <ele>507</ele>
        <time>2018-11-08T14:35:00+01:00</time>
      </trkpt>
      <trkpt lat="45.00931" lon="4.69985">
        <ele>506</ele>
        <time>2018-11-08T14:35:03+01:00</time>
      </trkpt>
      <trkpt lat="45.00921" lon="4.69973">
        <ele>506</ele>
        <time>2018-11-08T14:35:15+01:00</time>
      </trkpt>
      <trkpt lat="45.00918" lon="4.6997">
        <ele>506</ele>
        <time>2018-11-08T14:35:18+01:00</time>
      </trkpt>
      <trkpt lat="45.00908" lon="4.69967">
        <ele>505</ele>
        <time>2018-11-08T14:35:27+01:00</time>
      </trkpt>
      <trkpt lat="45.00903" lon="4.69967">
        <ele>505</ele>
        <time>2018-11-08T14:35:34+01:00</time>
      </trkpt>
      <trkpt lat="45.00902" lon="4.6997">
        <ele>504</ele>
        <time>2018-11-08T14:35:40+01:00</time>
      </trkpt>
      <trkpt lat="45.00896" lon="4.69973">
        <ele>504</ele>
        <time>2018-11-08T14:35:48+01:00</time>
      </trkpt>
      <trkpt lat="45.00895" lon="4.69974">
        <ele>504</ele>
        <time>2018-11-08T14:35:49+01:00</time>
      </trkpt>
      <trkpt lat="45.00882" lon="4.69978">
        <ele>502</ele>
        <time>2018-11-08T14:35:59+01:00</time>
      </trkpt>
      <trkpt lat="45.00867" lon="4.6998">
        <ele>501</ele>
        <time>2018-11-08T14:36:10+01:00</time>
      </trkpt>
      <trkpt lat="45.00858" lon="4.69978">
        <ele>500</ele>
        <time>2018-11-08T14:36:18+01:00</time>
      </trkpt>
      <trkpt lat="45.00848" lon="4.69979">
        <ele>499</ele>
        <time>2018-11-08T14:36:26+01:00</time>
      </trkpt>
      <trkpt lat="45.00836" lon="4.69982">
        <ele>498</ele>
        <time>2018-11-08T14:36:35+01:00</time>
      </trkpt>
      <trkpt lat="45.00824" lon="4.69983">
        <ele>498</ele>
        <time>2018-11-08T14:36:45+01:00</time>
      </trkpt>
      <trkpt lat="45.00813" lon="4.69985">
        <ele>497</ele>
        <time>2018-11-08T14:36:55+01:00</time>
      </trkpt>
      <trkpt lat="45.00801" lon="4.69986">
        <ele>497</ele>
        <time>2018-11-08T14:37:04+01:00</time>
      </trkpt>
      <trkpt lat="45.00791" lon="4.69987">
        <ele>497</ele>
        <time>2018-11-08T14:37:12+01:00</time>
      </trkpt>
      <trkpt lat="45.00784" lon="4.69993">
        <ele>497</ele>
        <time>2018-11-08T14:37:20+01:00</time>
      </trkpt>
      <trkpt lat="45.00779" lon="4.7">
        <ele>497</ele>
        <time>2018-11-08T14:37:27+01:00</time>
      </trkpt>
      <trkpt lat="45.00781" lon="4.70001">
        <ele>497</ele>
        <time>2018-11-08T14:37:36+01:00</time>
      </trkpt>
      <trkpt lat="45.00782" lon="4.70006">
        <ele>497</ele>
        <time>2018-11-08T14:37:45+01:00</time>
      </trkpt>
      <trkpt lat="45.00785" lon="4.70019">
        <ele>496</ele>
        <time>2018-11-08T14:37:53+01:00</time>
      </trkpt>
      <trkpt lat="45.00789" lon="4.70034">
        <ele>495</ele>
        <time>2018-11-08T14:38:03+01:00</time>
      </trkpt>
      <trkpt lat="45.00791" lon="4.70046">
        <ele>494</ele>
        <time>2018-11-08T14:38:11+01:00</time>
      </trkpt>
      <trkpt lat="45.00792" lon="4.70056">
        <ele>494</ele>
        <time>2018-11-08T14:38:18+01:00</time>
      </trkpt>
      <trkpt lat="45.00795" lon="4.7007">
        <ele>493</ele>
        <time>2018-11-08T14:38:26+01:00</time>
      </trkpt>
      <trkpt lat="45.00796" lon="4.70075">
        <ele>493</ele>
        <time>2018-11-08T14:38:30+01:00</time>
      </trkpt>
      <trkpt lat="45.00799" lon="4.70088">
        <ele>492</ele>
        <time>2018-11-08T14:38:39+01:00</time>
      </trkpt>
      <trkpt lat="45.00799" lon="4.70089">
        <ele>492</ele>
        <time>2018-11-08T14:38:40+01:00</time>
      </trkpt>
      <trkpt lat="45.00799" lon="4.70101">
        <ele>492</ele>
        <time>2018-11-08T14:38:47+01:00</time>
      </trkpt>
      <trkpt lat="45.00796" lon="4.70118">
        <ele>491</ele>
        <time>2018-11-08T14:38:58+01:00</time>
      </trkpt>
      <trkpt lat="45.00792" lon="4.70127">
        <ele>490</ele>
        <time>2018-11-08T14:39:07+01:00</time>
      </trkpt>
      <trkpt lat="45.00789" lon="4.70132">
        <ele>490</ele>
        <time>2018-11-08T14:39:13+01:00</time>
      </trkpt>
      <trkpt lat="45.0078" lon="4.70139">
        <ele>489</ele>
        <time>2018-11-08T14:39:22+01:00</time>
      </trkpt>
      <trkpt lat="45.00767" lon="4.70145">
        <ele>488</ele>
        <time>2018-11-08T14:39:34+01:00</time>
      </trkpt>
      <trkpt lat="45.00761" lon="4.70147">
        <ele>487</ele>
        <time>2018-11-08T14:39:40+01:00</time>
      </trkpt>
      <trkpt lat="45.00752" lon="4.70146">
        <ele>487</ele>
        <time>2018-11-08T14:39:46+01:00</time>
      </trkpt>
      <trkpt lat="45.00746" lon="4.70143">
        <ele>487</ele>
        <time>2018-11-08T14:39:52+01:00</time>
      </trkpt>
      <trkpt lat="45.00738" lon="4.7014">
        <ele>488</ele>
        <time>2018-11-08T14:40:00+01:00</time>
      </trkpt>
      <trkpt lat="45.00729" lon="4.70135">
        <ele>488</ele>
        <time>2018-11-08T14:40:09+01:00</time>
      </trkpt>
      <trkpt lat="45.00725" lon="4.70133">
        <ele>488</ele>
        <time>2018-11-08T14:40:16+01:00</time>
      </trkpt>
      <trkpt lat="45.00717" lon="4.70133">
        <ele>489</ele>
        <time>2018-11-08T14:40:24+01:00</time>
      </trkpt>
      <trkpt lat="45.00707" lon="4.70137">
        <ele>488</ele>
        <time>2018-11-08T14:40:33+01:00</time>
      </trkpt>
      <trkpt lat="45.00705" lon="4.70141">
        <ele>488</ele>
        <time>2018-11-08T14:40:40+01:00</time>
      </trkpt>
      <trkpt lat="45.00705" lon="4.70144">
        <ele>488</ele>
        <time>2018-11-08T14:40:49+01:00</time>
      </trkpt>
      <trkpt lat="45.00696" lon="4.70146">
        <ele>488</ele>
        <time>2018-11-08T14:40:55+01:00</time>
      </trkpt>
      <trkpt lat="45.00688" lon="4.70152">
        <ele>488</ele>
        <time>2018-11-08T14:41:04+01:00</time>
      </trkpt>
      <trkpt lat="45.00686" lon="4.70156">
        <ele>488</ele>
        <time>2018-11-08T14:41:08+01:00</time>
      </trkpt>
      <trkpt lat="45.0068" lon="4.70173">
        <ele>487</ele>
        <time>2018-11-08T14:41:19+01:00</time>
      </trkpt>
      <trkpt lat="45.00675" lon="4.70185">
        <ele>485</ele>
        <time>2018-11-08T14:41:27+01:00</time>
      </trkpt>
      <trkpt lat="45.00667" lon="4.70192">
        <ele>485</ele>
        <time>2018-11-08T14:41:36+01:00</time>
      </trkpt>
      <trkpt lat="45.00657" lon="4.70194">
        <ele>484</ele>
        <time>2018-11-08T14:41:45+01:00</time>
      </trkpt>
      <trkpt lat="45.00652" lon="4.70192">
        <ele>484</ele>
        <time>2018-11-08T14:41:54+01:00</time>
      </trkpt>
      <trkpt lat="45.00639" lon="4.7019">
        <ele>484</ele>
        <time>2018-11-08T14:42:06+01:00</time>
      </trkpt>
      <trkpt lat="45.0063" lon="4.70187">
        <ele>485</ele>
        <time>2018-11-08T14:42:15+01:00</time>
      </trkpt>
      <trkpt lat="45.00627" lon="4.70185">
        <ele>485</ele>
        <time>2018-11-08T14:42:17+01:00</time>
      </trkpt>
      <trkpt lat="45.00606" lon="4.70183">
        <ele>485</ele>
        <time>2018-11-08T14:42:28+01:00</time>
      </trkpt>
      <trkpt lat="45.00597" lon="4.70181">
        <ele>485</ele>
        <time>2018-11-08T14:42:35+01:00</time>
      </trkpt>
      <trkpt lat="45.00583" lon="4.70181">
        <ele>485</ele>
        <time>2018-11-08T14:42:45+01:00</time>
      </trkpt>
      <trkpt lat="45.00573" lon="4.70184">
        <ele>484</ele>
        <time>2018-11-08T14:42:53+01:00</time>
      </trkpt>
      <trkpt lat="45.00565" lon="4.70192">
        <ele>483</ele>
        <time>2018-11-08T14:43:01+01:00</time>
      </trkpt>
      <trkpt lat="45.00558" lon="4.70198">
        <ele>482</ele>
        <time>2018-11-08T14:43:10+01:00</time>
      </trkpt>
      <trkpt lat="45.00547" lon="4.70205">
        <ele>481</ele>
        <time>2018-11-08T14:43:20+01:00</time>
      </trkpt>
      <trkpt lat="45.00534" lon="4.70218">
        <ele>480</ele>
        <time>2018-11-08T14:43:31+01:00</time>
      </trkpt>
      <trkpt lat="45.00526" lon="4.70235">
        <ele>479</ele>
        <time>2018-11-08T14:43:40+01:00</time>
      </trkpt>
      <trkpt lat="45.00519" lon="4.70246">
        <ele>478</ele>
        <time>2018-11-08T14:43:50+01:00</time>
      </trkpt>
      <trkpt lat="45.00507" lon="4.70259">
        <ele>477</ele>
        <time>2018-11-08T14:44:02+01:00</time>
      </trkpt>
      <trkpt lat="45.00496" lon="4.70278">
        <ele>474</ele>
        <time>2018-11-08T14:44:13+01:00</time>
      </trkpt>
      <trkpt lat="45.00491" lon="4.70285">
        <ele>472</ele>
        <time>2018-11-08T14:44:21+01:00</time>
      </trkpt>
      <trkpt lat="45.00485" lon="4.70293">
        <ele>471</ele>
        <time>2018-11-08T14:44:30+01:00</time>
      </trkpt>
      <trkpt lat="45.00481" lon="4.70299">
        <ele>470</ele>
        <time>2018-11-08T14:44:37+01:00</time>
      </trkpt>
      <trkpt lat="45.00478" lon="4.70303">
        <ele>469</ele>
        <time>2018-11-08T14:44:42+01:00</time>
      </trkpt>
      <trkpt lat="45.00475" lon="4.70312">
        <ele>468</ele>
        <time>2018-11-08T14:44:51+01:00</time>
      </trkpt>
      <trkpt lat="45.00469" lon="4.7032">
        <ele>466</ele>
        <time>2018-11-08T14:45:00+01:00</time>
      </trkpt>
      <trkpt lat="45.00464" lon="4.70329">
        <ele>465</ele>
        <time>2018-11-08T14:45:08+01:00</time>
      </trkpt>
      <trkpt lat="45.00463" lon="4.70331">
        <ele>465</ele>
        <time>2018-11-08T14:45:10+01:00</time>
      </trkpt>
      <trkpt lat="45.00456" lon="4.70345">
        <ele>465</ele>
        <time>2018-11-08T14:45:20+01:00</time>
      </trkpt>
      <trkpt lat="45.0045" lon="4.70358">
        <ele>464</ele>
        <time>2018-11-08T14:45:30+01:00</time>
      </trkpt>
      <trkpt lat="45.00445" lon="4.70368">
        <ele>464</ele>
        <time>2018-11-08T14:45:37+01:00</time>
      </trkpt>
      <trkpt lat="45.00437" lon="4.7038">
        <ele>465</ele>
        <time>2018-11-08T14:45:47+01:00</time>
      </trkpt>
      <trkpt lat="45.0043" lon="4.70394">
        <ele>465</ele>
        <time>2018-11-08T14:45:58+01:00</time>
      </trkpt>
      <trkpt lat="45.00425" lon="4.70402">
        <ele>465</ele>
        <time>2018-11-08T14:46:06+01:00</time>
      </trkpt>
      <trkpt lat="45.00419" lon="4.70412">
        <ele>466</ele>
        <time>2018-11-08T14:46:14+01:00</time>
      </trkpt>
      <trkpt lat="45.00414" lon="4.70424">
        <ele>466</ele>
        <time>2018-11-08T14:46:22+01:00</time>
      </trkpt>
      <trkpt lat="45.00407" lon="4.70439">
        <ele>465</ele>
        <time>2018-11-08T14:46:32+01:00</time>
      </trkpt>
      <trkpt lat="45.00402" lon="4.70452">
        <ele>464</ele>
        <time>2018-11-08T14:46:41+01:00</time>
      </trkpt>
      <trkpt lat="45.00397" lon="4.70462">
        <ele>464</ele>
        <time>2018-11-08T14:46:48+01:00</time>
      </trkpt>
      <trkpt lat="45.0039" lon="4.70474">
        <ele>463</ele>
        <time>2018-11-08T14:46:57+01:00</time>
      </trkpt>
      <trkpt lat="45.00384" lon="4.70482">
        <ele>463</ele>
        <time>2018-11-08T14:47:06+01:00</time>
      </trkpt>
      <trkpt lat="45.0038" lon="4.70484">
        <ele>463</ele>
        <time>2018-11-08T14:47:10+01:00</time>
      </trkpt>
      <trkpt lat="45.00373" lon="4.70485">
        <ele>462</ele>
        <time>2018-11-08T14:47:15+01:00</time>
      </trkpt>
      <trkpt lat="45.0036" lon="4.70479">
        <ele>461</ele>
        <time>2018-11-08T14:47:26+01:00</time>
      </trkpt>
      <trkpt lat="45.00353" lon="4.70473">
        <ele>461</ele>
        <time>2018-11-08T14:47:34+01:00</time>
      </trkpt>
      <trkpt lat="45.00345" lon="4.7047">
        <ele>460</ele>
        <time>2018-11-08T14:47:42+01:00</time>
      </trkpt>
      <trkpt lat="45.00339" lon="4.70467">
        <ele>460</ele>
        <time>2018-11-08T14:47:48+01:00</time>
      </trkpt>
      <trkpt lat="45.00329" lon="4.70469">
        <ele>458</ele>
        <time>2018-11-08T14:47:57+01:00</time>
      </trkpt>
      <trkpt lat="45.00324" lon="4.7047">
        <ele>457</ele>
        <time>2018-11-08T14:48:04+01:00</time>
      </trkpt>
      <trkpt lat="45.00319" lon="4.70474">
        <ele>456</ele>
        <time>2018-11-08T14:48:11+01:00</time>
      </trkpt>
      <trkpt lat="45.00316" lon="4.70477">
        <ele>455</ele>
        <time>2018-11-08T14:48:15+01:00</time>
      </trkpt>
      <trkpt lat="45.00307" lon="4.70489">
        <ele>452</ele>
        <time>2018-11-08T14:48:24+01:00</time>
      </trkpt>
      <trkpt lat="45.00299" lon="4.705">
        <ele>450</ele>
        <time>2018-11-08T14:48:33+01:00</time>
      </trkpt>
      <trkpt lat="45.00291" lon="4.70507">
        <ele>448</ele>
        <time>2018-11-08T14:48:42+01:00</time>
      </trkpt>
      <trkpt lat="45.00285" lon="4.70514">
        <ele>446</ele>
        <time>2018-11-08T14:48:49+01:00</time>
      </trkpt>
      <trkpt lat="45.0028" lon="4.70523">
        <ele>445</ele>
        <time>2018-11-08T14:48:56+01:00</time>
      </trkpt>
      <trkpt lat="45.00279" lon="4.70525">
        <ele>445</ele>
        <time>2018-11-08T14:48:57+01:00</time>
      </trkpt>
      <trkpt lat="45.00273" lon="4.7054">
        <ele>443</ele>
        <time>2018-11-08T14:49:08+01:00</time>
      </trkpt>
      <trkpt lat="45.00269" lon="4.70551">
        <ele>443</ele>
        <time>2018-11-08T14:49:16+01:00</time>
      </trkpt>
      <trkpt lat="45.00267" lon="4.70563">
        <ele>443</ele>
        <time>2018-11-08T14:49:23+01:00</time>
      </trkpt>
      <trkpt lat="45.00264" lon="4.70575">
        <ele>442</ele>
        <time>2018-11-08T14:49:32+01:00</time>
      </trkpt>
      <trkpt lat="45.00258" lon="4.70585">
        <ele>441</ele>
        <time>2018-11-08T14:49:41+01:00</time>
      </trkpt>
      <trkpt lat="45.00246" lon="4.70591">
        <ele>438</ele>
        <time>2018-11-08T14:49:52+01:00</time>
      </trkpt>
      <trkpt lat="45.00245" lon="4.70591">
        <ele>438</ele>
        <time>2018-11-08T14:49:53+01:00</time>
      </trkpt>
      <trkpt lat="45.00234" lon="4.70594">
        <ele>434</ele>
        <time>2018-11-08T14:50:02+01:00</time>
      </trkpt>
      <trkpt lat="45.00228" lon="4.70604">
        <ele>433</ele>
        <time>2018-11-08T14:50:10+01:00</time>
      </trkpt>
      <trkpt lat="45.00224" lon="4.70615">
        <ele>432</ele>
        <time>2018-11-08T14:50:19+01:00</time>
      </trkpt>
      <trkpt lat="45.00222" lon="4.70627">
        <ele>431</ele>
        <time>2018-11-08T14:50:28+01:00</time>
      </trkpt>
      <trkpt lat="45.00222" lon="4.7064">
        <ele>432</ele>
        <time>2018-11-08T14:50:36+01:00</time>
      </trkpt>
      <trkpt lat="45.00222" lon="4.70657">
        <ele>432</ele>
        <time>2018-11-08T14:50:45+01:00</time>
      </trkpt>
      <trkpt lat="45.00222" lon="4.70669">
        <ele>432</ele>
        <time>2018-11-08T14:50:53+01:00</time>
      </trkpt>
      <trkpt lat="45.00221" lon="4.70679">
        <ele>431</ele>
        <time>2018-11-08T14:51:00+01:00</time>
      </trkpt>
      <trkpt lat="45.00218" lon="4.70694">
        <ele>430</ele>
        <time>2018-11-08T14:51:09+01:00</time>
      </trkpt>
      <trkpt lat="45.00214" lon="4.7071">
        <ele>428</ele>
        <time>2018-11-08T14:51:19+01:00</time>
      </trkpt>
      <trkpt lat="45.00213" lon="4.70724">
        <ele>427</ele>
        <time>2018-11-08T14:51:28+01:00</time>
      </trkpt>
      <trkpt lat="45.00213" lon="4.70725">
        <ele>427</ele>
        <time>2018-11-08T14:51:29+01:00</time>
      </trkpt>
      <trkpt lat="45.00215" lon="4.70738">
        <ele>427</ele>
        <time>2018-11-08T14:51:37+01:00</time>
      </trkpt>
      <trkpt lat="45.00217" lon="4.70743">
        <ele>427</ele>
        <time>2018-11-08T14:51:41+01:00</time>
      </trkpt>
      <trkpt lat="45.00219" lon="4.70755">
        <ele>427</ele>
        <time>2018-11-08T14:51:49+01:00</time>
      </trkpt>
      <trkpt lat="45.0022" lon="4.70762">
        <ele>427</ele>
        <time>2018-11-08T14:51:53+01:00</time>
      </trkpt>
      <trkpt lat="45.00217" lon="4.70779">
        <ele>426</ele>
        <time>2018-11-08T14:52:03+01:00</time>
      </trkpt>
      <trkpt lat="45.00214" lon="4.70792">
        <ele>425</ele>
        <time>2018-11-08T14:52:12+01:00</time>
      </trkpt>
      <trkpt lat="45.00214" lon="4.70807">
        <ele>424</ele>
        <time>2018-11-08T14:52:21+01:00</time>
      </trkpt>
      <trkpt lat="45.00215" lon="4.70822">
        <ele>424</ele>
        <time>2018-11-08T14:52:29+01:00</time>
      </trkpt>
      <trkpt lat="45.00216" lon="4.70832">
        <ele>424</ele>
        <time>2018-11-08T14:52:36+01:00</time>
      </trkpt>
      <trkpt lat="45.00218" lon="4.70844">
        <ele>424</ele>
        <time>2018-11-08T14:52:44+01:00</time>
      </trkpt>
      <trkpt lat="45.0022" lon="4.70862">
        <ele>423</ele>
        <time>2018-11-08T14:52:55+01:00</time>
      </trkpt>
      <trkpt lat="45.00218" lon="4.70874">
        <ele>422</ele>
        <time>2018-11-08T14:53:03+01:00</time>
      </trkpt>
      <trkpt lat="45.0022" lon="4.70889">
        <ele>421</ele>
        <time>2018-11-08T14:53:12+01:00</time>
      </trkpt>
      <trkpt lat="45.00219" lon="4.70901">
        <ele>420</ele>
        <time>2018-11-08T14:53:20+01:00</time>
      </trkpt>
      <trkpt lat="45.00219" lon="4.70913">
        <ele>420</ele>
        <time>2018-11-08T14:53:27+01:00</time>
      </trkpt>
      <trkpt lat="45.00219" lon="4.70915">
        <ele>419</ele>
        <time>2018-11-08T14:53:28+01:00</time>
      </trkpt>
      <trkpt lat="45.00216" lon="4.70933">
        <ele>419</ele>
        <time>2018-11-08T14:53:38+01:00</time>
      </trkpt>
      <trkpt lat="45.00212" lon="4.70944">
        <ele>418</ele>
        <time>2018-11-08T14:53:46+01:00</time>
      </trkpt>
      <trkpt lat="45.00205" lon="4.70951">
        <ele>417</ele>
        <time>2018-11-08T14:53:53+01:00</time>
      </trkpt>
      <trkpt lat="45.00197" lon="4.70956">
        <ele>415</ele>
        <time>2018-11-08T14:54:02+01:00</time>
      </trkpt>
      <trkpt lat="45.00188" lon="4.7096">
        <ele>413</ele>
        <time>2018-11-08T14:54:11+01:00</time>
      </trkpt>
      <trkpt lat="45.00179" lon="4.70967">
        <ele>412</ele>
        <time>2018-11-08T14:54:19+01:00</time>
      </trkpt>
      <trkpt lat="45.00173" lon="4.70971">
        <ele>410</ele>
        <time>2018-11-08T14:54:25+01:00</time>
      </trkpt>
      <trkpt lat="45.00171" lon="4.70972">
        <ele>410</ele>
        <time>2018-11-08T14:54:34+01:00</time>
      </trkpt>
      <trkpt lat="45.0017" lon="4.70974">
        <ele>410</ele>
        <time>2018-11-08T14:54:42+01:00</time>
      </trkpt>
      <trkpt lat="45.0017" lon="4.70977">
        <ele>410</ele>
        <time>2018-11-08T14:54:55+01:00</time>
      </trkpt>
      <trkpt lat="45.00168" lon="4.70982">
        <ele>410</ele>
        <time>2018-11-08T14:55:12+01:00</time>
      </trkpt>
      <trkpt lat="45.00161" lon="4.7098">
        <ele>410</ele>
        <time>2018-11-08T14:55:24+01:00</time>
      </trkpt>
      <trkpt lat="45.0016" lon="4.70978">
        <ele>410</ele>
        <time>2018-11-08T14:55:37+01:00</time>
      </trkpt>
      <trkpt lat="45.00168" lon="4.70978">
        <ele>410</ele>
        <time>2018-11-08T14:55:51+01:00</time>
      </trkpt>
      <trkpt lat="45.00176" lon="4.7098">
        <ele>411</ele>
        <time>2018-11-08T14:56:05+01:00</time>
      </trkpt>
      <trkpt lat="45.00175" lon="4.70978">
        <ele>411</ele>
        <time>2018-11-08T14:56:19+01:00</time>
      </trkpt>
      <trkpt lat="45.0016" lon="4.7098">
        <ele>410</ele>
        <time>2018-11-08T14:56:30+01:00</time>
      </trkpt>
      <trkpt lat="45.00152" lon="4.70985">
        <ele>412</ele>
        <time>2018-11-08T14:56:39+01:00</time>
      </trkpt>
      <trkpt lat="45.00146" lon="4.70997">
        <ele>413</ele>
        <time>2018-11-08T14:56:49+01:00</time>
      </trkpt>
      <trkpt lat="45.00144" lon="4.71005">
        <ele>413</ele>
        <time>2018-11-08T14:56:56+01:00</time>
      </trkpt>
      <trkpt lat="45.00143" lon="4.71007">
        <ele>413</ele>
        <time>2018-11-08T14:56:57+01:00</time>
      </trkpt>
      <trkpt lat="45.00141" lon="4.71021">
        <ele>413</ele>
        <time>2018-11-08T14:57:06+01:00</time>
      </trkpt>
      <trkpt lat="45.00141" lon="4.7103">
        <ele>413</ele>
        <time>2018-11-08T14:57:13+01:00</time>
      </trkpt>
      <trkpt lat="45.00138" lon="4.71035">
        <ele>413</ele>
        <time>2018-11-08T14:57:21+01:00</time>
      </trkpt>
      <trkpt lat="45.00138" lon="4.71039">
        <ele>413</ele>
        <time>2018-11-08T14:57:32+01:00</time>
      </trkpt>
      <trkpt lat="45.00137" lon="4.71044">
        <ele>413</ele>
        <time>2018-11-08T14:57:40+01:00</time>
      </trkpt>
      <trkpt lat="45.00135" lon="4.71053">
        <ele>413</ele>
        <time>2018-11-08T14:57:49+01:00</time>
      </trkpt>
      <trkpt lat="45.00134" lon="4.71057">
        <ele>413</ele>
        <time>2018-11-08T14:57:58+01:00</time>
      </trkpt>
      <trkpt lat="45.00132" lon="4.71059">
        <ele>414</ele>
        <time>2018-11-08T14:58:10+01:00</time>
      </trkpt>
      <trkpt lat="45.00129" lon="4.71059">
        <ele>414</ele>
        <time>2018-11-08T14:58:17+01:00</time>
      </trkpt>
      <trkpt lat="45.00128" lon="4.71061">
        <ele>414</ele>
        <time>2018-11-08T14:58:18+01:00</time>
      </trkpt>
      <trkpt lat="45.00123" lon="4.7107">
        <ele>415</ele>
        <time>2018-11-08T14:58:25+01:00</time>
      </trkpt>
      <trkpt lat="45.00118" lon="4.71071">
        <ele>415</ele>
        <time>2018-11-08T14:58:32+01:00</time>
      </trkpt>
      <trkpt lat="45.00118" lon="4.71067">
        <ele>415</ele>
        <time>2018-11-08T14:58:38+01:00</time>
      </trkpt>
      <trkpt lat="45.00118" lon="4.71065">
        <ele>415</ele>
        <time>2018-11-08T14:58:39+01:00</time>
      </trkpt>
      <trkpt lat="45.00119" lon="4.71058">
        <ele>415</ele>
        <time>2018-11-08T14:58:47+01:00</time>
      </trkpt>
      <trkpt lat="45.00119" lon="4.71047">
        <ele>416</ele>
        <time>2018-11-08T14:58:55+01:00</time>
      </trkpt>
      <trkpt lat="45.00117" lon="4.71037">
        <ele>416</ele>
        <time>2018-11-08T14:59:02+01:00</time>
      </trkpt>
      <trkpt lat="45.00112" lon="4.71024">
        <ele>417</ele>
        <time>2018-11-08T14:59:11+01:00</time>
      </trkpt>
      <trkpt lat="45.00108" lon="4.71017">
        <ele>418</ele>
        <time>2018-11-08T14:59:16+01:00</time>
      </trkpt>
      <trkpt lat="45.001" lon="4.71005">
        <ele>419</ele>
        <time>2018-11-08T14:59:26+01:00</time>
      </trkpt>
      <trkpt lat="45.00094" lon="4.70993">
        <ele>420</ele>
        <time>2018-11-08T14:59:35+01:00</time>
      </trkpt>
      <trkpt lat="45.00089" lon="4.70984">
        <ele>421</ele>
        <time>2018-11-08T14:59:43+01:00</time>
      </trkpt>
      <trkpt lat="45.00083" lon="4.70975">
        <ele>421</ele>
        <time>2018-11-08T14:59:51+01:00</time>
      </trkpt>
      <trkpt lat="45.00081" lon="4.70968">
        <ele>421</ele>
        <time>2018-11-08T14:59:56+01:00</time>
      </trkpt>
      <trkpt lat="45.00079" lon="4.70962">
        <ele>422</ele>
        <time>2018-11-08T15:00:01+01:00</time>
      </trkpt>
      <trkpt lat="45.00075" lon="4.70951">
        <ele>422</ele>
        <time>2018-11-08T15:00:10+01:00</time>
      </trkpt>
      <trkpt lat="45.00069" lon="4.70938">
        <ele>423</ele>
        <time>2018-11-08T15:00:19+01:00</time>
      </trkpt>
      <trkpt lat="45.00065" lon="4.70929">
        <ele>423</ele>
        <time>2018-11-08T15:00:26+01:00</time>
      </trkpt>
      <trkpt lat="45.00059" lon="4.7092">
        <ele>424</ele>
        <time>2018-11-08T15:00:33+01:00</time>
      </trkpt>
      <trkpt lat="45.00051" lon="4.70911">
        <ele>426</ele>
        <time>2018-11-08T15:00:42+01:00</time>
      </trkpt>
      <trkpt lat="45.00045" lon="4.70903">
        <ele>427</ele>
        <time>2018-11-08T15:00:50+01:00</time>
      </trkpt>
      <trkpt lat="45.00036" lon="4.70896">
        <ele>428</ele>
        <time>2018-11-08T15:00:59+01:00</time>
      </trkpt>
      <trkpt lat="45.00027" lon="4.70887">
        <ele>430</ele>
        <time>2018-11-08T15:01:06+01:00</time>
      </trkpt>
      <trkpt lat="45.00018" lon="4.70882">
        <ele>432</ele>
        <time>2018-11-08T15:01:14+01:00</time>
      </trkpt>
      <trkpt lat="45.00008" lon="4.70877">
        <ele>433</ele>
        <time>2018-11-08T15:01:22+01:00</time>
      </trkpt>
      <trkpt lat="45.00002" lon="4.70874">
        <ele>435</ele>
        <time>2018-11-08T15:01:30+01:00</time>
      </trkpt>
      <trkpt lat="44.99995" lon="4.70874">
        <ele>436</ele>
        <time>2018-11-08T15:01:37+01:00</time>
      </trkpt>
      <trkpt lat="44.99988" lon="4.70874">
        <ele>437</ele>
        <time>2018-11-08T15:01:43+01:00</time>
      </trkpt>
      <trkpt lat="44.99986" lon="4.70876">
        <ele>438</ele>
        <time>2018-11-08T15:01:45+01:00</time>
      </trkpt>
      <trkpt lat="44.99989" lon="4.7089">
        <ele>438</ele>
        <time>2018-11-08T15:01:54+01:00</time>
      </trkpt>
      <trkpt lat="44.99991" lon="4.70896">
        <ele>438</ele>
        <time>2018-11-08T15:01:58+01:00</time>
      </trkpt>
      <trkpt lat="44.99997" lon="4.70911">
        <ele>437</ele>
        <time>2018-11-08T15:02:08+01:00</time>
      </trkpt>
      <trkpt lat="45.00002" lon="4.70921">
        <ele>437</ele>
        <time>2018-11-08T15:02:15+01:00</time>
      </trkpt>
      <trkpt lat="45.00006" lon="4.70935">
        <ele>436</ele>
        <time>2018-11-08T15:02:25+01:00</time>
      </trkpt>
      <trkpt lat="45.00007" lon="4.70943">
        <ele>436</ele>
        <time>2018-11-08T15:02:30+01:00</time>
      </trkpt>
      <trkpt lat="45.00008" lon="4.70964">
        <ele>436</ele>
        <time>2018-11-08T15:02:42+01:00</time>
      </trkpt>
      <trkpt lat="45.00006" lon="4.70982">
        <ele>437</ele>
        <time>2018-11-08T15:02:53+01:00</time>
      </trkpt>
      <trkpt lat="45.00004" lon="4.70997">
        <ele>437</ele>
        <time>2018-11-08T15:03:01+01:00</time>
      </trkpt>
      <trkpt lat="44.99999" lon="4.7101">
        <ele>437</ele>
        <time>2018-11-08T15:03:09+01:00</time>
      </trkpt>
      <trkpt lat="44.99994" lon="4.71024">
        <ele>437</ele>
        <time>2018-11-08T15:03:18+01:00</time>
      </trkpt>
      <trkpt lat="44.99986" lon="4.71035">
        <ele>437</ele>
        <time>2018-11-08T15:03:28+01:00</time>
      </trkpt>
      <trkpt lat="44.99977" lon="4.71041">
        <ele>437</ele>
        <time>2018-11-08T15:03:37+01:00</time>
      </trkpt>
      <trkpt lat="44.99969" lon="4.71043">
        <ele>439</ele>
        <time>2018-11-08T15:03:45+01:00</time>
      </trkpt>
      <trkpt lat="44.9996" lon="4.71044">
        <ele>440</ele>
        <time>2018-11-08T15:03:53+01:00</time>
      </trkpt>
      <trkpt lat="44.99952" lon="4.71044">
        <ele>441</ele>
        <time>2018-11-08T15:04:00+01:00</time>
      </trkpt>
      <trkpt lat="44.99943" lon="4.71043">
        <ele>443</ele>
        <time>2018-11-08T15:04:07+01:00</time>
      </trkpt>
      <trkpt lat="44.99937" lon="4.71043">
        <ele>444</ele>
        <time>2018-11-08T15:04:14+01:00</time>
      </trkpt>
      <trkpt lat="44.99927" lon="4.71042">
        <ele>446</ele>
        <time>2018-11-08T15:04:22+01:00</time>
      </trkpt>
      <trkpt lat="44.99924" lon="4.71041">
        <ele>446</ele>
        <time>2018-11-08T15:04:25+01:00</time>
      </trkpt>
      <trkpt lat="44.99916" lon="4.7104">
        <ele>448</ele>
        <time>2018-11-08T15:04:33+01:00</time>
      </trkpt>
      <trkpt lat="44.99909" lon="4.71041">
        <ele>449</ele>
        <time>2018-11-08T15:04:40+01:00</time>
      </trkpt>
      <trkpt lat="44.99907" lon="4.7104">
        <ele>449</ele>
        <time>2018-11-08T15:04:42+01:00</time>
      </trkpt>
      <trkpt lat="44.99901" lon="4.71038">
        <ele>450</ele>
        <time>2018-11-08T15:04:47+01:00</time>
      </trkpt>
      <trkpt lat="44.99895" lon="4.71036">
        <ele>451</ele>
        <time>2018-11-08T15:04:55+01:00</time>
      </trkpt>
      <trkpt lat="44.99889" lon="4.71036">
        <ele>452</ele>
        <time>2018-11-08T15:05:03+01:00</time>
      </trkpt>
      <trkpt lat="44.99885" lon="4.71035">
        <ele>453</ele>
        <time>2018-11-08T15:05:09+01:00</time>
      </trkpt>
      <trkpt lat="44.99879" lon="4.71034">
        <ele>454</ele>
        <time>2018-11-08T15:05:15+01:00</time>
      </trkpt>
      <trkpt lat="44.99872" lon="4.71034">
        <ele>455</ele>
        <time>2018-11-08T15:05:22+01:00</time>
      </trkpt>
      <trkpt lat="44.99867" lon="4.71032">
        <ele>456</ele>
        <time>2018-11-08T15:05:28+01:00</time>
      </trkpt>
      <trkpt lat="44.99859" lon="4.71031">
        <ele>457</ele>
        <time>2018-11-08T15:05:38+01:00</time>
      </trkpt>
      <trkpt lat="44.99851" lon="4.71032">
        <ele>458</ele>
        <time>2018-11-08T15:05:46+01:00</time>
      </trkpt>
      <trkpt lat="44.99845" lon="4.71031">
        <ele>459</ele>
        <time>2018-11-08T15:05:53+01:00</time>
      </trkpt>
      <trkpt lat="44.99838" lon="4.71028">
        <ele>461</ele>
        <time>2018-11-08T15:06:01+01:00</time>
      </trkpt>
      <trkpt lat="44.99833" lon="4.71026">
        <ele>462</ele>
        <time>2018-11-08T15:06:07+01:00</time>
      </trkpt>
      <trkpt lat="44.99834" lon="4.7102">
        <ele>463</ele>
        <time>2018-11-08T15:06:15+01:00</time>
      </trkpt>
      <trkpt lat="44.99839" lon="4.71015">
        <ele>463</ele>
        <time>2018-11-08T15:06:23+01:00</time>
      </trkpt>
      <trkpt lat="44.99838" lon="4.71011">
        <ele>464</ele>
        <time>2018-11-08T15:06:32+01:00</time>
      </trkpt>
      <trkpt lat="44.99838" lon="4.71003">
        <ele>466</ele>
        <time>2018-11-08T15:06:39+01:00</time>
      </trkpt>
      <trkpt lat="44.99837" lon="4.71002">
        <ele>466</ele>
        <time>2018-11-08T15:06:45+01:00</time>
      </trkpt>
      <trkpt lat="44.99835" lon="4.71">
        <ele>467</ele>
        <time>2018-11-08T15:06:55+01:00</time>
      </trkpt>
      <trkpt lat="44.99833" lon="4.70994">
        <ele>467</ele>
        <time>2018-11-08T15:07:03+01:00</time>
      </trkpt>
      <trkpt lat="44.99834" lon="4.70993">
        <ele>467</ele>
        <time>2018-11-08T15:07:13+01:00</time>
      </trkpt>
      <trkpt lat="44.9983" lon="4.70991">
        <ele>468</ele>
        <time>2018-11-08T15:07:24+01:00</time>
      </trkpt>
      <trkpt lat="44.99826" lon="4.70988">
        <ele>468</ele>
        <time>2018-11-08T15:07:32+01:00</time>
      </trkpt>
      <trkpt lat="44.99822" lon="4.70983">
        <ele>469</ele>
        <time>2018-11-08T15:07:39+01:00</time>
      </trkpt>
      <trkpt lat="44.99822" lon="4.70976">
        <ele>469</ele>
        <time>2018-11-08T15:07:47+01:00</time>
      </trkpt>
      <trkpt lat="44.99822" lon="4.70967">
        <ele>470</ele>
        <time>2018-11-08T15:07:55+01:00</time>
      </trkpt>
      <trkpt lat="44.99816" lon="4.7096">
        <ele>471</ele>
        <time>2018-11-08T15:08:02+01:00</time>
      </trkpt>
      <trkpt lat="44.99813" lon="4.7096">
        <ele>472</ele>
        <time>2018-11-08T15:08:05+01:00</time>
      </trkpt>
      <trkpt lat="44.99808" lon="4.70963">
        <ele>472</ele>
        <time>2018-11-08T15:08:11+01:00</time>
      </trkpt>
      <trkpt lat="44.99803" lon="4.70965">
        <ele>472</ele>
        <time>2018-11-08T15:08:18+01:00</time>
      </trkpt>
      <trkpt lat="44.99797" lon="4.70965">
        <ele>473</ele>
        <time>2018-11-08T15:08:25+01:00</time>
      </trkpt>
      <trkpt lat="44.99794" lon="4.70964">
        <ele>474</ele>
        <time>2018-11-08T15:08:31+01:00</time>
      </trkpt>
      <trkpt lat="44.99792" lon="4.70965">
        <ele>474</ele>
        <time>2018-11-08T15:08:43+01:00</time>
      </trkpt>
      <trkpt lat="44.99789" lon="4.70961">
        <ele>474</ele>
        <time>2018-11-08T15:08:51+01:00</time>
      </trkpt>
      <trkpt lat="44.99788" lon="4.7096">
        <ele>475</ele>
        <time>2018-11-08T15:08:53+01:00</time>
      </trkpt>
      <trkpt lat="44.99782" lon="4.70956">
        <ele>476</ele>
        <time>2018-11-08T15:09:00+01:00</time>
      </trkpt>
      <trkpt lat="44.99781" lon="4.70955">
        <ele>476</ele>
        <time>2018-11-08T15:09:01+01:00</time>
      </trkpt>
      <trkpt lat="44.99778" lon="4.70958">
        <ele>476</ele>
        <time>2018-11-08T15:09:08+01:00</time>
      </trkpt>
      <trkpt lat="44.99771" lon="4.70955">
        <ele>477</ele>
        <time>2018-11-08T15:09:15+01:00</time>
      </trkpt>
      <trkpt lat="44.99766" lon="4.70951">
        <ele>478</ele>
        <time>2018-11-08T15:09:23+01:00</time>
      </trkpt>
      <trkpt lat="44.99759" lon="4.7095">
        <ele>479</ele>
        <time>2018-11-08T15:09:30+01:00</time>
      </trkpt>
      <trkpt lat="44.99752" lon="4.7095">
        <ele>480</ele>
        <time>2018-11-08T15:09:38+01:00</time>
      </trkpt>
      <trkpt lat="44.99747" lon="4.7095">
        <ele>481</ele>
        <time>2018-11-08T15:09:45+01:00</time>
      </trkpt>
      <trkpt lat="44.99746" lon="4.7095">
        <ele>481</ele>
        <time>2018-11-08T15:09:46+01:00</time>
      </trkpt>
      <trkpt lat="44.9974" lon="4.70949">
        <ele>483</ele>
        <time>2018-11-08T15:09:54+01:00</time>
      </trkpt>
      <trkpt lat="44.99735" lon="4.70945">
        <ele>484</ele>
        <time>2018-11-08T15:10:02+01:00</time>
      </trkpt>
      <trkpt lat="44.9973" lon="4.70939">
        <ele>486</ele>
        <time>2018-11-08T15:10:10+01:00</time>
      </trkpt>
      <trkpt lat="44.99728" lon="4.70932">
        <ele>487</ele>
        <time>2018-11-08T15:10:17+01:00</time>
      </trkpt>
      <trkpt lat="44.99726" lon="4.70923">
        <ele>488</ele>
        <time>2018-11-08T15:10:25+01:00</time>
      </trkpt>
      <trkpt lat="44.99723" lon="4.70912">
        <ele>489</ele>
        <time>2018-11-08T15:10:34+01:00</time>
      </trkpt>
      <trkpt lat="44.99718" lon="4.70903">
        <ele>490</ele>
        <time>2018-11-08T15:10:42+01:00</time>
      </trkpt>
      <trkpt lat="44.99714" lon="4.70899">
        <ele>490</ele>
        <time>2018-11-08T15:10:48+01:00</time>
      </trkpt>
      <trkpt lat="44.9971" lon="4.70894">
        <ele>491</ele>
        <time>2018-11-08T15:10:58+01:00</time>
      </trkpt>
      <trkpt lat="44.99704" lon="4.70896">
        <ele>492</ele>
        <time>2018-11-08T15:11:08+01:00</time>
      </trkpt>
      <trkpt lat="44.99698" lon="4.70898">
        <ele>494</ele>
        <time>2018-11-08T15:11:14+01:00</time>
      </trkpt>
      <trkpt lat="44.99698" lon="4.70899">
        <ele>494</ele>
        <time>2018-11-08T15:11:15+01:00</time>
      </trkpt>
      <trkpt lat="44.99692" lon="4.70902">
        <ele>495</ele>
        <time>2018-11-08T15:11:23+01:00</time>
      </trkpt>
      <trkpt lat="44.99686" lon="4.70904">
        <ele>497</ele>
        <time>2018-11-08T15:11:30+01:00</time>
      </trkpt>
      <trkpt lat="44.99685" lon="4.70905">
        <ele>497</ele>
        <time>2018-11-08T15:11:31+01:00</time>
      </trkpt>
      <trkpt lat="44.9968" lon="4.70906">
        <ele>499</ele>
        <time>2018-11-08T15:11:38+01:00</time>
      </trkpt>
      <trkpt lat="44.99677" lon="4.70907">
        <ele>499</ele>
        <time>2018-11-08T15:11:43+01:00</time>
      </trkpt>
      <trkpt lat="44.9967" lon="4.70909">
        <ele>501</ele>
        <time>2018-11-08T15:11:49+01:00</time>
      </trkpt>
      <trkpt lat="44.99664" lon="4.70911">
        <ele>503</ele>
        <time>2018-11-08T15:11:56+01:00</time>
      </trkpt>
      <trkpt lat="44.99659" lon="4.70911">
        <ele>504</ele>
        <time>2018-11-08T15:12:02+01:00</time>
      </trkpt>
      <trkpt lat="44.99655" lon="4.70913">
        <ele>506</ele>
        <time>2018-11-08T15:12:09+01:00</time>
      </trkpt>
      <trkpt lat="44.99648" lon="4.70913">
        <ele>507</ele>
        <time>2018-11-08T15:12:17+01:00</time>
      </trkpt>
      <trkpt lat="44.99641" lon="4.70913">
        <ele>509</ele>
        <time>2018-11-08T15:12:25+01:00</time>
      </trkpt>
      <trkpt lat="44.99632" lon="4.70914">
        <ele>511</ele>
        <time>2018-11-08T15:12:34+01:00</time>
      </trkpt>
      <trkpt lat="44.99627" lon="4.70915">
        <ele>513</ele>
        <time>2018-11-08T15:12:43+01:00</time>
      </trkpt>
      <trkpt lat="44.99623" lon="4.70915">
        <ele>514</ele>
        <time>2018-11-08T15:12:49+01:00</time>
      </trkpt>
      <trkpt lat="44.99624" lon="4.70914">
        <ele>513</ele>
        <time>2018-11-08T15:12:57+01:00</time>
      </trkpt>
      <trkpt lat="44.99618" lon="4.70916">
        <ele>515</ele>
        <time>2018-11-08T15:13:04+01:00</time>
      </trkpt>
      <trkpt lat="44.99612" lon="4.70918">
        <ele>517</ele>
        <time>2018-11-08T15:13:11+01:00</time>
      </trkpt>
      <trkpt lat="44.99608" lon="4.70919">
        <ele>518</ele>
        <time>2018-11-08T15:13:17+01:00</time>
      </trkpt>
      <trkpt lat="44.99603" lon="4.70918">
        <ele>519</ele>
        <time>2018-11-08T15:13:23+01:00</time>
      </trkpt>
      <trkpt lat="44.99598" lon="4.70918">
        <ele>520</ele>
        <time>2018-11-08T15:13:31+01:00</time>
      </trkpt>
      <trkpt lat="44.99596" lon="4.7092">
        <ele>521</ele>
        <time>2018-11-08T15:13:37+01:00</time>
      </trkpt>
      <trkpt lat="44.99594" lon="4.70925">
        <ele>521</ele>
        <time>2018-11-08T15:13:44+01:00</time>
      </trkpt>
      <trkpt lat="44.99594" lon="4.70934">
        <ele>520</ele>
        <time>2018-11-08T15:13:51+01:00</time>
      </trkpt>
      <trkpt lat="44.9959" lon="4.70939">
        <ele>521</ele>
        <time>2018-11-08T15:13:58+01:00</time>
      </trkpt>
      <trkpt lat="44.99583" lon="4.70944">
        <ele>522</ele>
        <time>2018-11-08T15:14:05+01:00</time>
      </trkpt>
      <trkpt lat="44.9958" lon="4.70948">
        <ele>522</ele>
        <time>2018-11-08T15:14:12+01:00</time>
      </trkpt>
      <trkpt lat="44.99575" lon="4.7095">
        <ele>523</ele>
        <time>2018-11-08T15:14:29+01:00</time>
      </trkpt>
      <trkpt lat="44.99568" lon="4.70948">
        <ele>525</ele>
        <time>2018-11-08T15:14:36+01:00</time>
      </trkpt>
      <trkpt lat="44.99561" lon="4.70943">
        <ele>526</ele>
        <time>2018-11-08T15:14:44+01:00</time>
      </trkpt>
      <trkpt lat="44.99556" lon="4.70942">
        <ele>527</ele>
        <time>2018-11-08T15:14:50+01:00</time>
      </trkpt>
      <trkpt lat="44.9955" lon="4.7094">
        <ele>529</ele>
        <time>2018-11-08T15:14:58+01:00</time>
      </trkpt>
      <trkpt lat="44.99543" lon="4.70942">
        <ele>530</ele>
        <time>2018-11-08T15:15:05+01:00</time>
      </trkpt>
      <trkpt lat="44.99536" lon="4.70942">
        <ele>531</ele>
        <time>2018-11-08T15:15:13+01:00</time>
      </trkpt>
      <trkpt lat="44.99531" lon="4.70942">
        <ele>532</ele>
        <time>2018-11-08T15:15:19+01:00</time>
      </trkpt>
      <trkpt lat="44.99526" lon="4.70942">
        <ele>533</ele>
        <time>2018-11-08T15:15:26+01:00</time>
      </trkpt>
      <trkpt lat="44.99519" lon="4.70943">
        <ele>534</ele>
        <time>2018-11-08T15:15:33+01:00</time>
      </trkpt>
      <trkpt lat="44.99513" lon="4.70943">
        <ele>536</ele>
        <time>2018-11-08T15:15:41+01:00</time>
      </trkpt>
      <trkpt lat="44.99507" lon="4.70942">
        <ele>537</ele>
        <time>2018-11-08T15:15:47+01:00</time>
      </trkpt>
      <trkpt lat="44.99499" lon="4.70948">
        <ele>538</ele>
        <time>2018-11-08T15:15:55+01:00</time>
      </trkpt>
      <trkpt lat="44.99491" lon="4.70949">
        <ele>539</ele>
        <time>2018-11-08T15:16:02+01:00</time>
      </trkpt>
      <trkpt lat="44.99484" lon="4.7095">
        <ele>540</ele>
        <time>2018-11-08T15:16:10+01:00</time>
      </trkpt>
      <trkpt lat="44.99478" lon="4.70952">
        <ele>541</ele>
        <time>2018-11-08T15:16:15+01:00</time>
      </trkpt>
      <trkpt lat="44.99471" lon="4.70953">
        <ele>542</ele>
        <time>2018-11-08T15:16:22+01:00</time>
      </trkpt>
      <trkpt lat="44.99466" lon="4.70955">
        <ele>542</ele>
        <time>2018-11-08T15:16:27+01:00</time>
      </trkpt>
      <trkpt lat="44.9946" lon="4.70955">
        <ele>543</ele>
        <time>2018-11-08T15:16:33+01:00</time>
      </trkpt>
      <trkpt lat="44.99457" lon="4.70953">
        <ele>543</ele>
        <time>2018-11-08T15:16:39+01:00</time>
      </trkpt>
      <trkpt lat="44.99458" lon="4.70953">
        <ele>543</ele>
        <time>2018-11-08T15:16:50+01:00</time>
      </trkpt>
      <trkpt lat="44.99458" lon="4.70952">
        <ele>543</ele>
        <time>2018-11-08T15:17:03+01:00</time>
      </trkpt>
      <trkpt lat="44.99456" lon="4.70953">
        <ele>544</ele>
        <time>2018-11-08T15:17:12+01:00</time>
      </trkpt>
      <trkpt lat="44.99454" lon="4.70952">
        <ele>544</ele>
        <time>2018-11-08T15:17:22+01:00</time>
      </trkpt>
      <trkpt lat="44.99456" lon="4.70952">
        <ele>544</ele>
        <time>2018-11-08T15:17:29+01:00</time>
      </trkpt>
      <trkpt lat="44.99456" lon="4.70954">
        <ele>544</ele>
        <time>2018-11-08T15:17:39+01:00</time>
      </trkpt>
      <trkpt lat="44.99455" lon="4.70953">
        <ele>544</ele>
        <time>2018-11-08T15:17:56+01:00</time>
      </trkpt>
      <trkpt lat="44.99454" lon="4.70953">
        <ele>544</ele>
        <time>2018-11-08T15:18:05+01:00</time>
      </trkpt>
      <trkpt lat="44.99453" lon="4.70952">
        <ele>544</ele>
        <time>2018-11-08T15:18:13+01:00</time>
      </trkpt>
      <trkpt lat="44.99454" lon="4.70949">
        <ele>544</ele>
        <time>2018-11-08T15:18:24+01:00</time>
      </trkpt>
      <trkpt lat="44.99452" lon="4.70951">
        <ele>544</ele>
        <time>2018-11-08T15:18:33+01:00</time>
      </trkpt>
      <trkpt lat="44.99452" lon="4.70948">
        <ele>544</ele>
        <time>2018-11-08T15:18:42+01:00</time>
      </trkpt>
      <trkpt lat="44.99451" lon="4.7095">
        <ele>544</ele>
        <time>2018-11-08T15:18:50+01:00</time>
      </trkpt>
      <trkpt lat="44.99449" lon="4.70954">
        <ele>545</ele>
        <time>2018-11-08T15:18:58+01:00</time>
      </trkpt>
      <trkpt lat="44.99449" lon="4.70955">
        <ele>545</ele>
        <time>2018-11-08T15:19:11+01:00</time>
      </trkpt>
      <trkpt lat="44.99451" lon="4.70953">
        <ele>544</ele>
        <time>2018-11-08T15:19:21+01:00</time>
      </trkpt>
      <trkpt lat="44.99447" lon="4.7095">
        <ele>545</ele>
        <time>2018-11-08T15:19:31+01:00</time>
      </trkpt>
      <trkpt lat="44.99442" lon="4.70947">
        <ele>546</ele>
        <time>2018-11-08T15:19:38+01:00</time>
      </trkpt>
      <trkpt lat="44.99433" lon="4.70943">
        <ele>547</ele>
        <time>2018-11-08T15:19:47+01:00</time>
      </trkpt>
      <trkpt lat="44.99427" lon="4.70941">
        <ele>548</ele>
        <time>2018-11-08T15:19:56+01:00</time>
      </trkpt>
      <trkpt lat="44.99429" lon="4.70941">
        <ele>547</ele>
        <time>2018-11-08T15:20:07+01:00</time>
      </trkpt>
      <trkpt lat="44.99429" lon="4.7094">
        <ele>547</ele>
        <time>2018-11-08T15:20:18+01:00</time>
      </trkpt>
      <trkpt lat="44.99428" lon="4.70941">
        <ele>548</ele>
        <time>2018-11-08T15:20:27+01:00</time>
      </trkpt>
      <trkpt lat="44.99425" lon="4.70945">
        <ele>548</ele>
        <time>2018-11-08T15:20:36+01:00</time>
      </trkpt>
      <trkpt lat="44.99419" lon="4.70946">
        <ele>549</ele>
        <time>2018-11-08T15:20:44+01:00</time>
      </trkpt>
      <trkpt lat="44.99413" lon="4.70946">
        <ele>549</ele>
        <time>2018-11-08T15:20:51+01:00</time>
      </trkpt>
      <trkpt lat="44.99411" lon="4.70946">
        <ele>549</ele>
        <time>2018-11-08T15:20:53+01:00</time>
      </trkpt>
      <trkpt lat="44.99404" lon="4.70945">
        <ele>550</ele>
        <time>2018-11-08T15:21:02+01:00</time>
      </trkpt>
      <trkpt lat="44.99397" lon="4.70946">
        <ele>550</ele>
        <time>2018-11-08T15:21:10+01:00</time>
      </trkpt>
      <trkpt lat="44.99389" lon="4.70944">
        <ele>551</ele>
        <time>2018-11-08T15:21:18+01:00</time>
      </trkpt>
      <trkpt lat="44.99381" lon="4.70943">
        <ele>551</ele>
        <time>2018-11-08T15:21:27+01:00</time>
      </trkpt>
      <trkpt lat="44.99373" lon="4.70942">
        <ele>552</ele>
        <time>2018-11-08T15:21:34+01:00</time>
      </trkpt>
      <trkpt lat="44.99363" lon="4.70936">
        <ele>553</ele>
        <time>2018-11-08T15:21:43+01:00</time>
      </trkpt>
      <trkpt lat="44.99354" lon="4.70928">
        <ele>554</ele>
        <time>2018-11-08T15:21:53+01:00</time>
      </trkpt>
      <trkpt lat="44.99347" lon="4.70922">
        <ele>554</ele>
        <time>2018-11-08T15:22:00+01:00</time>
      </trkpt>
      <trkpt lat="44.9934" lon="4.70914">
        <ele>555</ele>
        <time>2018-11-08T15:22:09+01:00</time>
      </trkpt>
      <trkpt lat="44.99333" lon="4.7091">
        <ele>555</ele>
        <time>2018-11-08T15:22:16+01:00</time>
      </trkpt>
      <trkpt lat="44.9933" lon="4.70909">
        <ele>556</ele>
        <time>2018-11-08T15:22:19+01:00</time>
      </trkpt>
      <trkpt lat="44.9932" lon="4.70902">
        <ele>558</ele>
        <time>2018-11-08T15:22:29+01:00</time>
      </trkpt>
      <trkpt lat="44.99312" lon="4.70898">
        <ele>559</ele>
        <time>2018-11-08T15:22:37+01:00</time>
      </trkpt>
      <trkpt lat="44.99306" lon="4.70894">
        <ele>560</ele>
        <time>2018-11-08T15:22:44+01:00</time>
      </trkpt>
      <trkpt lat="44.99297" lon="4.70889">
        <ele>562</ele>
        <time>2018-11-08T15:22:53+01:00</time>
      </trkpt>
      <trkpt lat="44.99292" lon="4.70887">
        <ele>563</ele>
        <time>2018-11-08T15:22:59+01:00</time>
      </trkpt>
      <trkpt lat="44.99283" lon="4.70886">
        <ele>565</ele>
        <time>2018-11-08T15:23:08+01:00</time>
      </trkpt>
      <trkpt lat="44.99274" lon="4.70878">
        <ele>566</ele>
        <time>2018-11-08T15:23:17+01:00</time>
      </trkpt>
      <trkpt lat="44.99266" lon="4.70871">
        <ele>567</ele>
        <time>2018-11-08T15:23:25+01:00</time>
      </trkpt>
      <trkpt lat="44.99262" lon="4.70868">
        <ele>568</ele>
        <time>2018-11-08T15:23:31+01:00</time>
      </trkpt>
      <trkpt lat="44.99255" lon="4.70863">
        <ele>568</ele>
        <time>2018-11-08T15:23:40+01:00</time>
      </trkpt>
      <trkpt lat="44.9925" lon="4.70857">
        <ele>569</ele>
        <time>2018-11-08T15:23:48+01:00</time>
      </trkpt>
      <trkpt lat="44.99244" lon="4.70852">
        <ele>570</ele>
        <time>2018-11-08T15:23:56+01:00</time>
      </trkpt>
      <trkpt lat="44.99234" lon="4.70842">
        <ele>571</ele>
        <time>2018-11-08T15:24:05+01:00</time>
      </trkpt>
      <trkpt lat="44.99226" lon="4.70835">
        <ele>573</ele>
        <time>2018-11-08T15:24:14+01:00</time>
      </trkpt>
      <trkpt lat="44.99219" lon="4.70825">
        <ele>574</ele>
        <time>2018-11-08T15:24:22+01:00</time>
      </trkpt>
      <trkpt lat="44.99212" lon="4.7082">
        <ele>575</ele>
        <time>2018-11-08T15:24:30+01:00</time>
      </trkpt>
      <trkpt lat="44.99203" lon="4.70811">
        <ele>576</ele>
        <time>2018-11-08T15:24:38+01:00</time>
      </trkpt>
      <trkpt lat="44.99195" lon="4.70806">
        <ele>577</ele>
        <time>2018-11-08T15:24:47+01:00</time>
      </trkpt>
      <trkpt lat="44.99189" lon="4.70802">
        <ele>578</ele>
        <time>2018-11-08T15:24:54+01:00</time>
      </trkpt>
      <trkpt lat="44.9918" lon="4.70794">
        <ele>579</ele>
        <time>2018-11-08T15:25:02+01:00</time>
      </trkpt>
      <trkpt lat="44.99169" lon="4.70783">
        <ele>580</ele>
        <time>2018-11-08T15:25:13+01:00</time>
      </trkpt>
      <trkpt lat="44.99161" lon="4.70776">
        <ele>581</ele>
        <time>2018-11-08T15:25:21+01:00</time>
      </trkpt>
      <trkpt lat="44.99155" lon="4.70772">
        <ele>581</ele>
        <time>2018-11-08T15:25:28+01:00</time>
      </trkpt>
      <trkpt lat="44.99148" lon="4.70769">
        <ele>582</ele>
        <time>2018-11-08T15:25:36+01:00</time>
      </trkpt>
      <trkpt lat="44.99142" lon="4.70765">
        <ele>582</ele>
        <time>2018-11-08T15:25:43+01:00</time>
      </trkpt>
      <trkpt lat="44.99136" lon="4.70762">
        <ele>583</ele>
        <time>2018-11-08T15:25:51+01:00</time>
      </trkpt>
      <trkpt lat="44.99129" lon="4.70761">
        <ele>584</ele>
        <time>2018-11-08T15:26:00+01:00</time>
      </trkpt>
      <trkpt lat="44.99121" lon="4.7076">
        <ele>585</ele>
        <time>2018-11-08T15:26:07+01:00</time>
      </trkpt>
      <trkpt lat="44.99118" lon="4.70759">
        <ele>585</ele>
        <time>2018-11-08T15:26:10+01:00</time>
      </trkpt>
      <trkpt lat="44.99114" lon="4.70759">
        <ele>586</ele>
        <time>2018-11-08T15:26:16+01:00</time>
      </trkpt>
      <trkpt lat="44.99108" lon="4.70764">
        <ele>587</ele>
        <time>2018-11-08T15:26:23+01:00</time>
      </trkpt>
      <trkpt lat="44.99107" lon="4.70765">
        <ele>587</ele>
        <time>2018-11-08T15:26:24+01:00</time>
      </trkpt>
      <trkpt lat="44.99098" lon="4.70774">
        <ele>590</ele>
        <time>2018-11-08T15:26:34+01:00</time>
      </trkpt>
      <trkpt lat="44.99092" lon="4.7078">
        <ele>591</ele>
        <time>2018-11-08T15:26:41+01:00</time>
      </trkpt>
      <trkpt lat="44.99087" lon="4.70783">
        <ele>592</ele>
        <time>2018-11-08T15:26:49+01:00</time>
      </trkpt>
      <trkpt lat="44.99081" lon="4.70787">
        <ele>593</ele>
        <time>2018-11-08T15:26:56+01:00</time>
      </trkpt>
      <trkpt lat="44.99073" lon="4.70791">
        <ele>594</ele>
        <time>2018-11-08T15:27:04+01:00</time>
      </trkpt>
      <trkpt lat="44.99066" lon="4.70792">
        <ele>595</ele>
        <time>2018-11-08T15:27:11+01:00</time>
      </trkpt>
      <trkpt lat="44.99066" lon="4.70793">
        <ele>595</ele>
        <time>2018-11-08T15:27:12+01:00</time>
      </trkpt>
      <trkpt lat="44.99057" lon="4.70796">
        <ele>596</ele>
        <time>2018-11-08T15:27:21+01:00</time>
      </trkpt>
      <trkpt lat="44.9905" lon="4.70799">
        <ele>597</ele>
        <time>2018-11-08T15:27:29+01:00</time>
      </trkpt>
      <trkpt lat="44.99048" lon="4.70799">
        <ele>597</ele>
        <time>2018-11-08T15:27:31+01:00</time>
      </trkpt>
      <trkpt lat="44.99037" lon="4.70802">
        <ele>598</ele>
        <time>2018-11-08T15:27:41+01:00</time>
      </trkpt>
      <trkpt lat="44.9903" lon="4.70804">
        <ele>599</ele>
        <time>2018-11-08T15:27:48+01:00</time>
      </trkpt>
      <trkpt lat="44.99028" lon="4.70805">
        <ele>599</ele>
        <time>2018-11-08T15:27:50+01:00</time>
      </trkpt>
      <trkpt lat="44.99025" lon="4.70806">
        <ele>599</ele>
        <time>2018-11-08T15:27:52+01:00</time>
      </trkpt>
      <trkpt lat="44.9902" lon="4.70808">
        <ele>600</ele>
        <time>2018-11-08T15:27:56+01:00</time>
      </trkpt>
      <trkpt lat="44.99015" lon="4.7081">
        <ele>600</ele>
        <time>2018-11-08T15:28:01+01:00</time>
      </trkpt>
      <trkpt lat="44.99011" lon="4.70811">
        <ele>601</ele>
        <time>2018-11-08T15:28:05+01:00</time>
      </trkpt>
      <trkpt lat="44.99008" lon="4.70805">
        <ele>601</ele>
        <time>2018-11-08T15:28:10+01:00</time>
      </trkpt>
      <trkpt lat="44.99007" lon="4.708">
        <ele>601</ele>
        <time>2018-11-08T15:28:18+01:00</time>
      </trkpt>
      <trkpt lat="44.99007" lon="4.70797">
        <ele>601</ele>
        <time>2018-11-08T15:28:26+01:00</time>
      </trkpt>
      <trkpt lat="44.99007" lon="4.70796">
        <ele>601</ele>
        <time>2018-11-08T15:28:37+01:00</time>
      </trkpt>
      <trkpt lat="44.99008" lon="4.70796">
        <ele>601</ele>
        <time>2018-11-08T15:28:53+01:00</time>
      </trkpt>
      <trkpt lat="44.99008" lon="4.70796">
        <ele>601</ele>
        <time>2018-11-08T15:29:03+01:00</time>
      </trkpt>
      <trkpt lat="44.99008" lon="4.70794">
        <ele>601</ele>
        <time>2018-11-08T15:29:17+01:00</time>
      </trkpt>
      <trkpt lat="44.99006" lon="4.70796">
        <ele>601</ele>
        <time>2018-11-08T15:29:24+01:00</time>
      </trkpt>
      <trkpt lat="44.99005" lon="4.708">
        <ele>601</ele>
        <time>2018-11-08T15:29:37+01:00</time>
      </trkpt>
      <trkpt lat="44.99005" lon="4.70798">
        <ele>601</ele>
        <time>2018-11-08T15:29:48+01:00</time>
      </trkpt>
      <trkpt lat="44.99006" lon="4.70795">
        <ele>601</ele>
        <time>2018-11-08T15:30:00+01:00</time>
      </trkpt>
      <trkpt lat="44.99006" lon="4.70796">
        <ele>601</ele>
        <time>2018-11-08T15:30:13+01:00</time>
      </trkpt>
      <trkpt lat="44.99006" lon="4.70799">
        <ele>601</ele>
        <time>2018-11-08T15:30:26+01:00</time>
      </trkpt>
      <trkpt lat="44.99007" lon="4.70799">
        <ele>601</ele>
        <time>2018-11-08T15:30:33+01:00</time>
      </trkpt>
      <trkpt lat="44.99005" lon="4.70798">
        <ele>601</ele>
        <time>2018-11-08T15:30:43+01:00</time>
      </trkpt>
      <trkpt lat="44.99005" lon="4.70797">
        <ele>601</ele>
        <time>2018-11-08T15:30:55+01:00</time>
      </trkpt>
      <trkpt lat="44.99005" lon="4.70797">
        <ele>601</ele>
        <time>2018-11-08T15:31:03+01:00</time>
      </trkpt>
      <trkpt lat="44.99005" lon="4.70796">
        <ele>601</ele>
        <time>2018-11-08T15:31:22+01:00</time>
      </trkpt>
      <trkpt lat="44.99004" lon="4.70796">
        <ele>601</ele>
        <time>2018-11-08T15:31:39+01:00</time>
      </trkpt>
      <trkpt lat="44.99005" lon="4.70795">
        <ele>601</ele>
        <time>2018-11-08T15:31:56+01:00</time>
      </trkpt>
      <trkpt lat="44.99006" lon="4.70796">
        <ele>601</ele>
        <time>2018-11-08T15:32:07+01:00</time>
      </trkpt>
      <trkpt lat="44.99006" lon="4.70794">
        <ele>601</ele>
        <time>2018-11-08T15:32:20+01:00</time>
      </trkpt>
      <trkpt lat="44.99006" lon="4.70795">
        <ele>601</ele>
        <time>2018-11-08T15:32:28+01:00</time>
      </trkpt>
      <trkpt lat="44.99008" lon="4.70795">
        <ele>601</ele>
        <time>2018-11-08T15:32:35+01:00</time>
      </trkpt>
      <trkpt lat="44.99018" lon="4.7079">
        <ele>600</ele>
        <time>2018-11-08T15:32:44+01:00</time>
      </trkpt>
      <trkpt lat="44.99024" lon="4.70784">
        <ele>599</ele>
        <time>2018-11-08T15:32:50+01:00</time>
      </trkpt>
      <trkpt lat="44.9903" lon="4.70775">
        <ele>598</ele>
        <time>2018-11-08T15:32:58+01:00</time>
      </trkpt>
      <trkpt lat="44.99034" lon="4.70768">
        <ele>597</ele>
        <time>2018-11-08T15:33:04+01:00</time>
      </trkpt>
      <trkpt lat="44.99037" lon="4.70764">
        <ele>597</ele>
        <time>2018-11-08T15:33:08+01:00</time>
      </trkpt>
      <trkpt lat="44.99039" lon="4.70757">
        <ele>596</ele>
        <time>2018-11-08T15:33:13+01:00</time>
      </trkpt>
      <trkpt lat="44.99041" lon="4.70751">
        <ele>596</ele>
        <time>2018-11-08T15:33:17+01:00</time>
      </trkpt>
      <trkpt lat="44.99043" lon="4.70738">
        <ele>595</ele>
        <time>2018-11-08T15:33:27+01:00</time>
      </trkpt>
      <trkpt lat="44.99046" lon="4.70726">
        <ele>595</ele>
        <time>2018-11-08T15:33:35+01:00</time>
      </trkpt>
      <trkpt lat="44.99047" lon="4.70721">
        <ele>595</ele>
        <time>2018-11-08T15:33:38+01:00</time>
      </trkpt>
      <trkpt lat="44.9905" lon="4.70707">
        <ele>594</ele>
        <time>2018-11-08T15:33:47+01:00</time>
      </trkpt>
      <trkpt lat="44.99053" lon="4.70697">
        <ele>594</ele>
        <time>2018-11-08T15:33:55+01:00</time>
      </trkpt>
      <trkpt lat="44.99059" lon="4.70685">
        <ele>593</ele>
        <time>2018-11-08T15:34:04+01:00</time>
      </trkpt>
      <trkpt lat="44.99061" lon="4.70682">
        <ele>593</ele>
        <time>2018-11-08T15:34:07+01:00</time>
      </trkpt>
      <trkpt lat="44.99068" lon="4.70671">
        <ele>591</ele>
        <time>2018-11-08T15:34:16+01:00</time>
      </trkpt>
      <trkpt lat="44.99073" lon="4.70659">
        <ele>591</ele>
        <time>2018-11-08T15:34:24+01:00</time>
      </trkpt>
      <trkpt lat="44.99075" lon="4.70653">
        <ele>590</ele>
        <time>2018-11-08T15:34:28+01:00</time>
      </trkpt>
      <trkpt lat="44.99076" lon="4.70644">
        <ele>590</ele>
        <time>2018-11-08T15:34:34+01:00</time>
      </trkpt>
      <trkpt lat="44.99076" lon="4.70638">
        <ele>590</ele>
        <time>2018-11-08T15:34:38+01:00</time>
      </trkpt>
      <trkpt lat="44.99076" lon="4.70624">
        <ele>590</ele>
        <time>2018-11-08T15:34:47+01:00</time>
      </trkpt>
      <trkpt lat="44.99073" lon="4.7061">
        <ele>591</ele>
        <time>2018-11-08T15:34:55+01:00</time>
      </trkpt>
      <trkpt lat="44.9907" lon="4.70599">
        <ele>591</ele>
        <time>2018-11-08T15:35:03+01:00</time>
      </trkpt>
      <trkpt lat="44.99065" lon="4.7059">
        <ele>592</ele>
        <time>2018-11-08T15:35:10+01:00</time>
      </trkpt>
      <trkpt lat="44.99063" lon="4.70581">
        <ele>592</ele>
        <time>2018-11-08T15:35:16+01:00</time>
      </trkpt>
      <trkpt lat="44.9906" lon="4.7057">
        <ele>592</ele>
        <time>2018-11-08T15:35:24+01:00</time>
      </trkpt>
      <trkpt lat="44.99058" lon="4.70559">
        <ele>593</ele>
        <time>2018-11-08T15:35:31+01:00</time>
      </trkpt>
      <trkpt lat="44.99055" lon="4.7055">
        <ele>593</ele>
        <time>2018-11-08T15:35:37+01:00</time>
      </trkpt>
      <trkpt lat="44.99053" lon="4.70535">
        <ele>593</ele>
        <time>2018-11-08T15:35:45+01:00</time>
      </trkpt>
      <trkpt lat="44.99051" lon="4.70522">
        <ele>592</ele>
        <time>2018-11-08T15:35:53+01:00</time>
      </trkpt>
      <trkpt lat="44.9905" lon="4.70509">
        <ele>592</ele>
        <time>2018-11-08T15:36:01+01:00</time>
      </trkpt>
      <trkpt lat="44.99049" lon="4.70494">
        <ele>593</ele>
        <time>2018-11-08T15:36:10+01:00</time>
      </trkpt>
      <trkpt lat="44.99048" lon="4.7048">
        <ele>594</ele>
        <time>2018-11-08T15:36:19+01:00</time>
      </trkpt>
      <trkpt lat="44.99052" lon="4.70467">
        <ele>595</ele>
        <time>2018-11-08T15:36:27+01:00</time>
      </trkpt>
      <trkpt lat="44.99054" lon="4.70462">
        <ele>595</ele>
        <time>2018-11-08T15:36:31+01:00</time>
      </trkpt>
      <trkpt lat="44.99059" lon="4.70454">
        <ele>594</ele>
        <time>2018-11-08T15:36:39+01:00</time>
      </trkpt>
      <trkpt lat="44.99068" lon="4.7045">
        <ele>593</ele>
        <time>2018-11-08T15:36:47+01:00</time>
      </trkpt>
      <trkpt lat="44.99077" lon="4.70453">
        <ele>591</ele>
        <time>2018-11-08T15:36:56+01:00</time>
      </trkpt>
      <trkpt lat="44.99079" lon="4.70454">
        <ele>590</ele>
        <time>2018-11-08T15:36:58+01:00</time>
      </trkpt>
      <trkpt lat="44.9908" lon="4.70454">
        <ele>590</ele>
        <time>2018-11-08T15:36:59+01:00</time>
      </trkpt>
      <trkpt lat="44.99087" lon="4.70458">
        <ele>588</ele>
        <time>2018-11-08T15:37:07+01:00</time>
      </trkpt>
      <trkpt lat="44.99096" lon="4.7046">
        <ele>587</ele>
        <time>2018-11-08T15:37:17+01:00</time>
      </trkpt>
      <trkpt lat="44.99103" lon="4.70461">
        <ele>585</ele>
        <time>2018-11-08T15:37:26+01:00</time>
      </trkpt>
      <trkpt lat="44.99109" lon="4.70461">
        <ele>584</ele>
        <time>2018-11-08T15:37:32+01:00</time>
      </trkpt>
      <trkpt lat="44.99113" lon="4.7046">
        <ele>583</ele>
        <time>2018-11-08T15:37:39+01:00</time>
      </trkpt>
      <trkpt lat="44.99121" lon="4.70459">
        <ele>582</ele>
        <time>2018-11-08T15:37:48+01:00</time>
      </trkpt>
      <trkpt lat="44.99128" lon="4.70457">
        <ele>581</ele>
        <time>2018-11-08T15:37:56+01:00</time>
      </trkpt>
      <trkpt lat="44.9914" lon="4.70459">
        <ele>579</ele>
        <time>2018-11-08T15:38:04+01:00</time>
      </trkpt>
      <trkpt lat="44.9915" lon="4.70456">
        <ele>577</ele>
        <time>2018-11-08T15:38:12+01:00</time>
      </trkpt>
      <trkpt lat="44.99156" lon="4.70454">
        <ele>576</ele>
        <time>2018-11-08T15:38:19+01:00</time>
      </trkpt>
      <trkpt lat="44.99163" lon="4.70447">
        <ele>576</ele>
        <time>2018-11-08T15:38:26+01:00</time>
      </trkpt>
      <trkpt lat="44.99169" lon="4.70439">
        <ele>576</ele>
        <time>2018-11-08T15:38:35+01:00</time>
      </trkpt>
      <trkpt lat="44.99171" lon="4.70432">
        <ele>576</ele>
        <time>2018-11-08T15:38:42+01:00</time>
      </trkpt>
      <trkpt lat="44.99174" lon="4.70423">
        <ele>576</ele>
        <time>2018-11-08T15:38:50+01:00</time>
      </trkpt>
      <trkpt lat="44.99177" lon="4.70414">
        <ele>576</ele>
        <time>2018-11-08T15:38:58+01:00</time>
      </trkpt>
      <trkpt lat="44.99181" lon="4.70396">
        <ele>575</ele>
        <time>2018-11-08T15:39:07+01:00</time>
      </trkpt>
      <trkpt lat="44.99186" lon="4.70379">
        <ele>574</ele>
        <time>2018-11-08T15:39:16+01:00</time>
      </trkpt>
      <trkpt lat="44.99188" lon="4.70369">
        <ele>574</ele>
        <time>2018-11-08T15:39:24+01:00</time>
      </trkpt>
      <trkpt lat="44.9919" lon="4.70361">
        <ele>573</ele>
        <time>2018-11-08T15:39:31+01:00</time>
      </trkpt>
      <trkpt lat="44.99194" lon="4.70349">
        <ele>572</ele>
        <time>2018-11-08T15:39:39+01:00</time>
      </trkpt>
      <trkpt lat="44.99198" lon="4.70338">
        <ele>571</ele>
        <time>2018-11-08T15:39:47+01:00</time>
      </trkpt>
      <trkpt lat="44.992" lon="4.70329">
        <ele>570</ele>
        <time>2018-11-08T15:39:54+01:00</time>
      </trkpt>
      <trkpt lat="44.99203" lon="4.70313">
        <ele>567</ele>
        <time>2018-11-08T15:40:04+01:00</time>
      </trkpt>
      <trkpt lat="44.992" lon="4.70308">
        <ele>567</ele>
        <time>2018-11-08T15:40:11+01:00</time>
      </trkpt>
      <trkpt lat="44.99203" lon="4.703">
        <ele>566</ele>
        <time>2018-11-08T15:40:19+01:00</time>
      </trkpt>
      <trkpt lat="44.99204" lon="4.70288">
        <ele>564</ele>
        <time>2018-11-08T15:40:28+01:00</time>
      </trkpt>
      <trkpt lat="44.99203" lon="4.7028">
        <ele>563</ele>
        <time>2018-11-08T15:40:35+01:00</time>
      </trkpt>
      <trkpt lat="44.992" lon="4.7027">
        <ele>562</ele>
        <time>2018-11-08T15:40:42+01:00</time>
      </trkpt>
      <trkpt lat="44.99198" lon="4.7026">
        <ele>561</ele>
        <time>2018-11-08T15:40:49+01:00</time>
      </trkpt>
      <trkpt lat="44.99194" lon="4.70252">
        <ele>561</ele>
        <time>2018-11-08T15:40:56+01:00</time>
      </trkpt>
      <trkpt lat="44.99194" lon="4.70251">
        <ele>561</ele>
        <time>2018-11-08T15:40:57+01:00</time>
      </trkpt>
      <trkpt lat="44.99192" lon="4.70244">
        <ele>560</ele>
        <time>2018-11-08T15:41:04+01:00</time>
      </trkpt>
      <trkpt lat="44.99191" lon="4.70236">
        <ele>559</ele>
        <time>2018-11-08T15:41:11+01:00</time>
      </trkpt>
      <trkpt lat="44.99189" lon="4.70227">
        <ele>558</ele>
        <time>2018-11-08T15:41:19+01:00</time>
      </trkpt>
      <trkpt lat="44.99186" lon="4.7022">
        <ele>557</ele>
        <time>2018-11-08T15:41:26+01:00</time>
      </trkpt>
      <trkpt lat="44.9918" lon="4.70214">
        <ele>557</ele>
        <time>2018-11-08T15:41:33+01:00</time>
      </trkpt>
      <trkpt lat="44.99179" lon="4.70214">
        <ele>558</ele>
        <time>2018-11-08T15:41:35+01:00</time>
      </trkpt>
      <trkpt lat="44.99174" lon="4.70212">
        <ele>558</ele>
        <time>2018-11-08T15:41:42+01:00</time>
      </trkpt>
      <trkpt lat="44.99167" lon="4.70213">
        <ele>560</ele>
        <time>2018-11-08T15:41:52+01:00</time>
      </trkpt>
      <trkpt lat="44.9916" lon="4.70212">
        <ele>562</ele>
        <time>2018-11-08T15:42:01+01:00</time>
      </trkpt>
      <trkpt lat="44.99154" lon="4.70213">
        <ele>564</ele>
        <time>2018-11-08T15:42:09+01:00</time>
      </trkpt>
      <trkpt lat="44.99148" lon="4.70212">
        <ele>566</ele>
        <time>2018-11-08T15:42:16+01:00</time>
      </trkpt>
      <trkpt lat="44.99142" lon="4.70206">
        <ele>567</ele>
        <time>2018-11-08T15:42:23+01:00</time>
      </trkpt>
      <trkpt lat="44.99141" lon="4.70195">
        <ele>566</ele>
        <time>2018-11-08T15:42:31+01:00</time>
      </trkpt>
      <trkpt lat="44.99141" lon="4.70187">
        <ele>565</ele>
        <time>2018-11-08T15:42:38+01:00</time>
      </trkpt>
      <trkpt lat="44.99141" lon="4.70174">
        <ele>564</ele>
        <time>2018-11-08T15:42:49+01:00</time>
      </trkpt>
      <trkpt lat="44.99144" lon="4.70165">
        <ele>562</ele>
        <time>2018-11-08T15:42:57+01:00</time>
      </trkpt>
      <trkpt lat="44.99151" lon="4.70154">
        <ele>557</ele>
        <time>2018-11-08T15:43:06+01:00</time>
      </trkpt>
      <trkpt lat="44.99156" lon="4.70146">
        <ele>554</ele>
        <time>2018-11-08T15:43:14+01:00</time>
      </trkpt>
      <trkpt lat="44.99163" lon="4.70132">
        <ele>548</ele>
        <time>2018-11-08T15:43:23+01:00</time>
      </trkpt>
      <trkpt lat="44.99166" lon="4.70134">
        <ele>547</ele>
        <time>2018-11-08T15:43:33+01:00</time>
      </trkpt>
      <trkpt lat="44.99166" lon="4.70134">
        <ele>548</ele>
        <time>2018-11-08T15:43:41+01:00</time>
      </trkpt>
      <trkpt lat="44.99165" lon="4.70136">
        <ele>548</ele>
        <time>2018-11-08T15:43:48+01:00</time>
      </trkpt>
      <trkpt lat="44.99165" lon="4.70139">
        <ele>549</ele>
        <time>2018-11-08T15:43:55+01:00</time>
      </trkpt>
      <trkpt lat="44.9917" lon="4.70139">
        <ele>547</ele>
        <time>2018-11-08T15:44:03+01:00</time>
      </trkpt>
      <trkpt lat="44.99164" lon="4.70132">
        <ele>548</ele>
        <time>2018-11-08T15:44:11+01:00</time>
      </trkpt>
      <trkpt lat="44.99161" lon="4.7013">
        <ele>549</ele>
        <time>2018-11-08T15:44:19+01:00</time>
      </trkpt>
      <trkpt lat="44.99162" lon="4.70122">
        <ele>547</ele>
        <time>2018-11-08T15:44:28+01:00</time>
      </trkpt>
      <trkpt lat="44.99167" lon="4.70114">
        <ele>544</ele>
        <time>2018-11-08T15:44:37+01:00</time>
      </trkpt>
      <trkpt lat="44.99165" lon="4.70102">
        <ele>542</ele>
        <time>2018-11-08T15:44:45+01:00</time>
      </trkpt>
      <trkpt lat="44.99164" lon="4.70096">
        <ele>542</ele>
        <time>2018-11-08T15:44:49+01:00</time>
      </trkpt>
      <trkpt lat="44.99158" lon="4.70087">
        <ele>542</ele>
        <time>2018-11-08T15:44:57+01:00</time>
      </trkpt>
      <trkpt lat="44.99158" lon="4.70083">
        <ele>542</ele>
        <time>2018-11-08T15:45:09+01:00</time>
      </trkpt>
      <trkpt lat="44.99156" lon="4.7008">
        <ele>542</ele>
        <time>2018-11-08T15:45:23+01:00</time>
      </trkpt>
      <trkpt lat="44.99158" lon="4.7008">
        <ele>541</ele>
        <time>2018-11-08T15:45:32+01:00</time>
      </trkpt>
      <trkpt lat="44.99156" lon="4.70074">
        <ele>541</ele>
        <time>2018-11-08T15:45:40+01:00</time>
      </trkpt>
      <trkpt lat="44.99151" lon="4.70066">
        <ele>542</ele>
        <time>2018-11-08T15:45:48+01:00</time>
      </trkpt>
      <trkpt lat="44.99147" lon="4.70061">
        <ele>543</ele>
        <time>2018-11-08T15:45:56+01:00</time>
      </trkpt>
      <trkpt lat="44.99143" lon="4.70053">
        <ele>542</ele>
        <time>2018-11-08T15:46:04+01:00</time>
      </trkpt>
      <trkpt lat="44.9914" lon="4.70046">
        <ele>542</ele>
        <time>2018-11-08T15:46:11+01:00</time>
      </trkpt>
      <trkpt lat="44.99135" lon="4.70036">
        <ele>542</ele>
        <time>2018-11-08T15:46:20+01:00</time>
      </trkpt>
      <trkpt lat="44.99134" lon="4.70035">
        <ele>542</ele>
        <time>2018-11-08T15:46:21+01:00</time>
      </trkpt>
      <trkpt lat="44.9913" lon="4.70024">
        <ele>542</ele>
        <time>2018-11-08T15:46:31+01:00</time>
      </trkpt>
      <trkpt lat="44.99128" lon="4.70015">
        <ele>541</ele>
        <time>2018-11-08T15:46:39+01:00</time>
      </trkpt>
      <trkpt lat="44.99126" lon="4.70012">
        <ele>540</ele>
        <time>2018-11-08T15:46:42+01:00</time>
      </trkpt>
      <trkpt lat="44.99125" lon="4.69997">
        <ele>538</ele>
        <time>2018-11-08T15:46:52+01:00</time>
      </trkpt>
      <trkpt lat="44.99123" lon="4.69986">
        <ele>538</ele>
        <time>2018-11-08T15:46:59+01:00</time>
      </trkpt>
      <trkpt lat="44.99122" lon="4.69978">
        <ele>537</ele>
        <time>2018-11-08T15:47:06+01:00</time>
      </trkpt>
      <trkpt lat="44.99123" lon="4.6997">
        <ele>536</ele>
        <time>2018-11-08T15:47:13+01:00</time>
      </trkpt>
      <trkpt lat="44.99124" lon="4.69963">
        <ele>535</ele>
        <time>2018-11-08T15:47:18+01:00</time>
      </trkpt>
      <trkpt lat="44.99124" lon="4.69952">
        <ele>534</ele>
        <time>2018-11-08T15:47:27+01:00</time>
      </trkpt>
      <trkpt lat="44.99124" lon="4.69945">
        <ele>533</ele>
        <time>2018-11-08T15:47:34+01:00</time>
      </trkpt>
      <trkpt lat="44.99123" lon="4.69934">
        <ele>532</ele>
        <time>2018-11-08T15:47:43+01:00</time>
      </trkpt>
      <trkpt lat="44.99124" lon="4.69921">
        <ele>530</ele>
        <time>2018-11-08T15:47:52+01:00</time>
      </trkpt>
      <trkpt lat="44.99122" lon="4.69908">
        <ele>529</ele>
        <time>2018-11-08T15:48:01+01:00</time>
      </trkpt>
      <trkpt lat="44.99118" lon="4.69901">
        <ele>529</ele>
        <time>2018-11-08T15:48:07+01:00</time>
      </trkpt>
      <trkpt lat="44.99118" lon="4.69899">
        <ele>529</ele>
        <time>2018-11-08T15:48:08+01:00</time>
      </trkpt>
      <trkpt lat="44.99111" lon="4.69888">
        <ele>529</ele>
        <time>2018-11-08T15:48:16+01:00</time>
      </trkpt>
      <trkpt lat="44.99106" lon="4.6988">
        <ele>529</ele>
        <time>2018-11-08T15:48:23+01:00</time>
      </trkpt>
      <trkpt lat="44.99102" lon="4.6987">
        <ele>528</ele>
        <time>2018-11-08T15:48:31+01:00</time>
      </trkpt>
      <trkpt lat="44.99096" lon="4.69856">
        <ele>527</ele>
        <time>2018-11-08T15:48:39+01:00</time>
      </trkpt>
      <trkpt lat="44.99091" lon="4.69847">
        <ele>526</ele>
        <time>2018-11-08T15:48:47+01:00</time>
      </trkpt>
      <trkpt lat="44.99087" lon="4.6984">
        <ele>526</ele>
        <time>2018-11-08T15:48:53+01:00</time>
      </trkpt>
      <trkpt lat="44.99081" lon="4.6983">
        <ele>525</ele>
        <time>2018-11-08T15:49:01+01:00</time>
      </trkpt>
      <trkpt lat="44.99076" lon="4.69822">
        <ele>525</ele>
        <time>2018-11-08T15:49:09+01:00</time>
      </trkpt>
      <trkpt lat="44.99072" lon="4.69817">
        <ele>524</ele>
        <time>2018-11-08T15:49:14+01:00</time>
      </trkpt>
      <trkpt lat="44.99068" lon="4.69813">
        <ele>525</ele>
        <time>2018-11-08T15:49:18+01:00</time>
      </trkpt>
      <trkpt lat="44.99063" lon="4.69806">
        <ele>524</ele>
        <time>2018-11-08T15:49:24+01:00</time>
      </trkpt>
      <trkpt lat="44.99057" lon="4.69798">
        <ele>524</ele>
        <time>2018-11-08T15:49:33+01:00</time>
      </trkpt>
      <trkpt lat="44.9905" lon="4.69789">
        <ele>524</ele>
        <time>2018-11-08T15:49:41+01:00</time>
      </trkpt>
      <trkpt lat="44.99042" lon="4.69781">
        <ele>524</ele>
        <time>2018-11-08T15:49:49+01:00</time>
      </trkpt>
      <trkpt lat="44.99034" lon="4.69773">
        <ele>524</ele>
        <time>2018-11-08T15:49:57+01:00</time>
      </trkpt>
      <trkpt lat="44.99028" lon="4.69766">
        <ele>524</ele>
        <time>2018-11-08T15:50:03+01:00</time>
      </trkpt>
      <trkpt lat="44.99023" lon="4.69758">
        <ele>523</ele>
        <time>2018-11-08T15:50:10+01:00</time>
      </trkpt>
      <trkpt lat="44.99017" lon="4.6975">
        <ele>523</ele>
        <time>2018-11-08T15:50:17+01:00</time>
      </trkpt>
      <trkpt lat="44.99009" lon="4.69742">
        <ele>524</ele>
        <time>2018-11-08T15:50:25+01:00</time>
      </trkpt>
      <trkpt lat="44.99008" lon="4.69741">
        <ele>524</ele>
        <time>2018-11-08T15:50:26+01:00</time>
      </trkpt>
      <trkpt lat="44.99001" lon="4.69734">
        <ele>524</ele>
        <time>2018-11-08T15:50:34+01:00</time>
      </trkpt>
      <trkpt lat="44.98995" lon="4.6973">
        <ele>525</ele>
        <time>2018-11-08T15:50:41+01:00</time>
      </trkpt>
      <trkpt lat="44.98988" lon="4.69728">
        <ele>526</ele>
        <time>2018-11-08T15:50:48+01:00</time>
      </trkpt>
      <trkpt lat="44.98977" lon="4.6972">
        <ele>528</ele>
        <time>2018-11-08T15:50:58+01:00</time>
      </trkpt>
      <trkpt lat="44.9897" lon="4.69712">
        <ele>528</ele>
        <time>2018-11-08T15:51:05+01:00</time>
      </trkpt>
      <trkpt lat="44.98966" lon="4.69707">
        <ele>528</ele>
        <time>2018-11-08T15:51:10+01:00</time>
      </trkpt>
      <trkpt lat="44.9896" lon="4.69695">
        <ele>528</ele>
        <time>2018-11-08T15:51:19+01:00</time>
      </trkpt>
      <trkpt lat="44.98961" lon="4.69682">
        <ele>526</ele>
        <time>2018-11-08T15:51:27+01:00</time>
      </trkpt>
      <trkpt lat="44.98961" lon="4.69681">
        <ele>526</ele>
        <time>2018-11-08T15:51:28+01:00</time>
      </trkpt>
      <trkpt lat="44.98962" lon="4.69673">
        <ele>525</ele>
        <time>2018-11-08T15:51:33+01:00</time>
      </trkpt>
      <trkpt lat="44.98964" lon="4.69663">
        <ele>523</ele>
        <time>2018-11-08T15:51:39+01:00</time>
      </trkpt>
      <trkpt lat="44.98964" lon="4.6966">
        <ele>523</ele>
        <time>2018-11-08T15:51:41+01:00</time>
      </trkpt>
      <trkpt lat="44.98963" lon="4.69646">
        <ele>522</ele>
        <time>2018-11-08T15:51:50+01:00</time>
      </trkpt>
      <trkpt lat="44.98958" lon="4.69634">
        <ele>522</ele>
        <time>2018-11-08T15:51:58+01:00</time>
      </trkpt>
      <trkpt lat="44.98956" lon="4.69631">
        <ele>522</ele>
        <time>2018-11-08T15:52:00+01:00</time>
      </trkpt>
      <trkpt lat="44.98948" lon="4.6962">
        <ele>522</ele>
        <time>2018-11-08T15:52:10+01:00</time>
      </trkpt>
      <trkpt lat="44.98939" lon="4.6961">
        <ele>523</ele>
        <time>2018-11-08T15:52:20+01:00</time>
      </trkpt>
      <trkpt lat="44.98931" lon="4.69603">
        <ele>523</ele>
        <time>2018-11-08T15:52:29+01:00</time>
      </trkpt>
      <trkpt lat="44.98923" lon="4.69597">
        <ele>523</ele>
        <time>2018-11-08T15:52:38+01:00</time>
      </trkpt>
      <trkpt lat="44.98915" lon="4.6959">
        <ele>523</ele>
        <time>2018-11-08T15:52:47+01:00</time>
      </trkpt>
      <trkpt lat="44.98911" lon="4.69586">
        <ele>522</ele>
        <time>2018-11-08T15:52:52+01:00</time>
      </trkpt>
      <trkpt lat="44.98909" lon="4.69586">
        <ele>522</ele>
        <time>2018-11-08T15:53:00+01:00</time>
      </trkpt>
      <trkpt lat="44.98908" lon="4.69583">
        <ele>522</ele>
        <time>2018-11-08T15:53:09+01:00</time>
      </trkpt>
      <trkpt lat="44.98899" lon="4.69578">
        <ele>521</ele>
        <time>2018-11-08T15:53:18+01:00</time>
      </trkpt>
      <trkpt lat="44.98898" lon="4.69577">
        <ele>521</ele>
        <time>2018-11-08T15:53:19+01:00</time>
      </trkpt>
      <trkpt lat="44.98888" lon="4.69572">
        <ele>520</ele>
        <time>2018-11-08T15:53:30+01:00</time>
      </trkpt>
      <trkpt lat="44.98881" lon="4.69566">
        <ele>519</ele>
        <time>2018-11-08T15:53:39+01:00</time>
      </trkpt>
      <trkpt lat="44.98873" lon="4.69562">
        <ele>519</ele>
        <time>2018-11-08T15:53:48+01:00</time>
      </trkpt>
      <trkpt lat="44.98862" lon="4.6956">
        <ele>518</ele>
        <time>2018-11-08T15:53:59+01:00</time>
      </trkpt>
      <trkpt lat="44.98855" lon="4.69557">
        <ele>518</ele>
        <time>2018-11-08T15:54:08+01:00</time>
      </trkpt>
      <trkpt lat="44.98847" lon="4.69551">
        <ele>517</ele>
        <time>2018-11-08T15:54:16+01:00</time>
      </trkpt>
      <trkpt lat="44.9884" lon="4.69545">
        <ele>516</ele>
        <time>2018-11-08T15:54:25+01:00</time>
      </trkpt>
      <trkpt lat="44.98833" lon="4.6954">
        <ele>515</ele>
        <time>2018-11-08T15:54:33+01:00</time>
      </trkpt>
      <trkpt lat="44.98827" lon="4.69536">
        <ele>514</ele>
        <time>2018-11-08T15:54:40+01:00</time>
      </trkpt>
      <trkpt lat="44.98819" lon="4.69532">
        <ele>513</ele>
        <time>2018-11-08T15:54:48+01:00</time>
      </trkpt>
      <trkpt lat="44.98811" lon="4.6953">
        <ele>513</ele>
        <time>2018-11-08T15:54:56+01:00</time>
      </trkpt>
      <trkpt lat="44.98801" lon="4.69525">
        <ele>512</ele>
        <time>2018-11-08T15:55:06+01:00</time>
      </trkpt>
      <trkpt lat="44.98792" lon="4.69524">
        <ele>512</ele>
        <time>2018-11-08T15:55:15+01:00</time>
      </trkpt>
      <trkpt lat="44.98782" lon="4.69526">
        <ele>512</ele>
        <time>2018-11-08T15:55:24+01:00</time>
      </trkpt>
      <trkpt lat="44.98776" lon="4.69525">
        <ele>512</ele>
        <time>2018-11-08T15:55:32+01:00</time>
      </trkpt>
      <trkpt lat="44.98769" lon="4.69523">
        <ele>512</ele>
        <time>2018-11-08T15:55:41+01:00</time>
      </trkpt>
      <trkpt lat="44.98761" lon="4.69522">
        <ele>511</ele>
        <time>2018-11-08T15:55:51+01:00</time>
      </trkpt>
      <trkpt lat="44.98756" lon="4.6952">
        <ele>511</ele>
        <time>2018-11-08T15:55:59+01:00</time>
      </trkpt>
      <trkpt lat="44.98748" lon="4.69519">
        <ele>511</ele>
        <time>2018-11-08T15:56:08+01:00</time>
      </trkpt>
      <trkpt lat="44.98741" lon="4.69516">
        <ele>511</ele>
        <time>2018-11-08T15:56:16+01:00</time>
      </trkpt>
      <trkpt lat="44.98732" lon="4.69513">
        <ele>512</ele>
        <time>2018-11-08T15:56:25+01:00</time>
      </trkpt>
      <trkpt lat="44.98725" lon="4.69509">
        <ele>512</ele>
        <time>2018-11-08T15:56:33+01:00</time>
      </trkpt>
      <trkpt lat="44.98723" lon="4.69503">
        <ele>511</ele>
        <time>2018-11-08T15:56:39+01:00</time>
      </trkpt>
      <trkpt lat="44.98723" lon="4.69507">
        <ele>511</ele>
        <time>2018-11-08T15:56:49+01:00</time>
      </trkpt>
      <trkpt lat="44.98725" lon="4.6951">
        <ele>512</ele>
        <time>2018-11-08T15:57:05+01:00</time>
      </trkpt>
      <trkpt lat="44.98727" lon="4.69511">
        <ele>512</ele>
        <time>2018-11-08T15:57:18+01:00</time>
      </trkpt>
      <trkpt lat="44.98732" lon="4.69505">
        <ele>510</ele>
        <time>2018-11-08T15:57:32+01:00</time>
      </trkpt>
      <trkpt lat="44.98734" lon="4.69499">
        <ele>510</ele>
        <time>2018-11-08T15:57:41+01:00</time>
      </trkpt>
      <trkpt lat="44.98735" lon="4.69497">
        <ele>509</ele>
        <time>2018-11-08T15:57:50+01:00</time>
      </trkpt>
      <trkpt lat="44.9874" lon="4.69491">
        <ele>509</ele>
        <time>2018-11-08T15:57:59+01:00</time>
      </trkpt>
      <trkpt lat="44.98748" lon="4.69479">
        <ele>508</ele>
        <time>2018-11-08T15:58:09+01:00</time>
      </trkpt>
      <trkpt lat="44.98753" lon="4.69472">
        <ele>508</ele>
        <time>2018-11-08T15:58:17+01:00</time>
      </trkpt>
      <trkpt lat="44.98758" lon="4.69465">
        <ele>507</ele>
        <time>2018-11-08T15:58:23+01:00</time>
      </trkpt>
      <trkpt lat="44.98762" lon="4.69454">
        <ele>507</ele>
        <time>2018-11-08T15:58:31+01:00</time>
      </trkpt>
      <trkpt lat="44.98762" lon="4.69441">
        <ele>506</ele>
        <time>2018-11-08T15:58:40+01:00</time>
      </trkpt>
      <trkpt lat="44.98761" lon="4.69427">
        <ele>506</ele>
        <time>2018-11-08T15:58:48+01:00</time>
      </trkpt>
      <trkpt lat="44.9876" lon="4.69409">
        <ele>506</ele>
        <time>2018-11-08T15:58:58+01:00</time>
      </trkpt>
      <trkpt lat="44.9876" lon="4.69394">
        <ele>505</ele>
        <time>2018-11-08T15:59:07+01:00</time>
      </trkpt>
      <trkpt lat="44.9876" lon="4.6939">
        <ele>505</ele>
        <time>2018-11-08T15:59:09+01:00</time>
      </trkpt>
      <trkpt lat="44.98762" lon="4.69384">
        <ele>505</ele>
        <time>2018-11-08T15:59:13+01:00</time>
      </trkpt>
      <trkpt lat="44.98765" lon="4.69375">
        <ele>504</ele>
        <time>2018-11-08T15:59:20+01:00</time>
      </trkpt>
      <trkpt lat="44.98769" lon="4.69363">
        <ele>504</ele>
        <time>2018-11-08T15:59:28+01:00</time>
      </trkpt>
      <trkpt lat="44.9877" lon="4.69361">
        <ele>504</ele>
        <time>2018-11-08T15:59:29+01:00</time>
      </trkpt>
      <trkpt lat="44.98774" lon="4.69346">
        <ele>503</ele>
        <time>2018-11-08T15:59:39+01:00</time>
      </trkpt>
      <trkpt lat="44.98775" lon="4.69335">
        <ele>503</ele>
        <time>2018-11-08T15:59:47+01:00</time>
      </trkpt>
      <trkpt lat="44.98775" lon="4.69332">
        <ele>503</ele>
        <time>2018-11-08T15:59:49+01:00</time>
      </trkpt>
      <trkpt lat="44.98775" lon="4.69322">
        <ele>503</ele>
        <time>2018-11-08T15:59:56+01:00</time>
      </trkpt>
      <trkpt lat="44.98775" lon="4.69308">
        <ele>503</ele>
        <time>2018-11-08T16:00:05+01:00</time>
      </trkpt>
      <trkpt lat="44.98779" lon="4.69299">
        <ele>503</ele>
        <time>2018-11-08T16:00:13+01:00</time>
      </trkpt>
      <trkpt lat="44.98786" lon="4.6929">
        <ele>502</ele>
        <time>2018-11-08T16:00:22+01:00</time>
      </trkpt>
      <trkpt lat="44.9879" lon="4.69281">
        <ele>502</ele>
        <time>2018-11-08T16:00:31+01:00</time>
      </trkpt>
      <trkpt lat="44.98791" lon="4.69279">
        <ele>502</ele>
        <time>2018-11-08T16:00:33+01:00</time>
      </trkpt>
      <trkpt lat="44.98795" lon="4.69268">
        <ele>502</ele>
        <time>2018-11-08T16:00:42+01:00</time>
      </trkpt>
      <trkpt lat="44.98798" lon="4.69257">
        <ele>502</ele>
        <time>2018-11-08T16:00:50+01:00</time>
      </trkpt>
      <trkpt lat="44.98797" lon="4.69242">
        <ele>502</ele>
        <time>2018-11-08T16:00:58+01:00</time>
      </trkpt>
      <trkpt lat="44.98794" lon="4.69226">
        <ele>501</ele>
        <time>2018-11-08T16:01:08+01:00</time>
      </trkpt>
      <trkpt lat="44.98792" lon="4.69214">
        <ele>501</ele>
        <time>2018-11-08T16:01:16+01:00</time>
      </trkpt>
      <trkpt lat="44.98788" lon="4.69202">
        <ele>500</ele>
        <time>2018-11-08T16:01:23+01:00</time>
      </trkpt>
      <trkpt lat="44.98787" lon="4.69199">
        <ele>500</ele>
        <time>2018-11-08T16:01:26+01:00</time>
      </trkpt>
      <trkpt lat="44.98784" lon="4.69192">
        <ele>500</ele>
        <time>2018-11-08T16:01:31+01:00</time>
      </trkpt>
      <trkpt lat="44.98781" lon="4.69181">
        <ele>500</ele>
        <time>2018-11-08T16:01:39+01:00</time>
      </trkpt>
      <trkpt lat="44.98775" lon="4.69168">
        <ele>500</ele>
        <time>2018-11-08T16:01:48+01:00</time>
      </trkpt>
      <trkpt lat="44.98772" lon="4.69158">
        <ele>499</ele>
        <time>2018-11-08T16:01:56+01:00</time>
      </trkpt>
      <trkpt lat="44.98766" lon="4.69147">
        <ele>498</ele>
        <time>2018-11-08T16:02:05+01:00</time>
      </trkpt>
      <trkpt lat="44.98764" lon="4.69144">
        <ele>498</ele>
        <time>2018-11-08T16:02:08+01:00</time>
      </trkpt>
      <trkpt lat="44.98761" lon="4.69132">
        <ele>497</ele>
        <time>2018-11-08T16:02:17+01:00</time>
      </trkpt>
      <trkpt lat="44.98761" lon="4.69131">
        <ele>496</ele>
        <time>2018-11-08T16:02:24+01:00</time>
      </trkpt>
      <trkpt lat="44.9876" lon="4.69129">
        <ele>496</ele>
        <time>2018-11-08T16:02:37+01:00</time>
      </trkpt>
      <trkpt lat="44.98758" lon="4.69121">
        <ele>496</ele>
        <time>2018-11-08T16:02:46+01:00</time>
      </trkpt>
      <trkpt lat="44.98757" lon="4.6911">
        <ele>494</ele>
        <time>2018-11-08T16:02:56+01:00</time>
      </trkpt>
      <trkpt lat="44.98756" lon="4.69099">
        <ele>493</ele>
        <time>2018-11-08T16:03:05+01:00</time>
      </trkpt>
      <trkpt lat="44.98755" lon="4.69099">
        <ele>493</ele>
        <time>2018-11-08T16:03:16+01:00</time>
      </trkpt>
      <trkpt lat="44.98756" lon="4.69095">
        <ele>492</ele>
        <time>2018-11-08T16:03:27+01:00</time>
      </trkpt>
      <trkpt lat="44.98756" lon="4.69097">
        <ele>493</ele>
        <time>2018-11-08T16:03:34+01:00</time>
      </trkpt>
      <trkpt lat="44.98756" lon="4.691">
        <ele>493</ele>
        <time>2018-11-08T16:03:44+01:00</time>
      </trkpt>
      <trkpt lat="44.98757" lon="4.69091">
        <ele>492</ele>
        <time>2018-11-08T16:03:51+01:00</time>
      </trkpt>
      <trkpt lat="44.98757" lon="4.69086">
        <ele>491</ele>
        <time>2018-11-08T16:03:58+01:00</time>
      </trkpt>
      <trkpt lat="44.98756" lon="4.69076">
        <ele>490</ele>
        <time>2018-11-08T16:04:07+01:00</time>
      </trkpt>
      <trkpt lat="44.98752" lon="4.69065">
        <ele>489</ele>
        <time>2018-11-08T16:04:16+01:00</time>
      </trkpt>
      <trkpt lat="44.98747" lon="4.69056">
        <ele>487</ele>
        <time>2018-11-08T16:04:24+01:00</time>
      </trkpt>
      <trkpt lat="44.98742" lon="4.69052">
        <ele>487</ele>
        <time>2018-11-08T16:04:32+01:00</time>
      </trkpt>
      <trkpt lat="44.98734" lon="4.69047">
        <ele>486</ele>
        <time>2018-11-08T16:04:40+01:00</time>
      </trkpt>
      <trkpt lat="44.98727" lon="4.69042">
        <ele>485</ele>
        <time>2018-11-08T16:04:48+01:00</time>
      </trkpt>
      <trkpt lat="44.98723" lon="4.69041">
        <ele>485</ele>
        <time>2018-11-08T16:04:52+01:00</time>
      </trkpt>
      <trkpt lat="44.98713" lon="4.69037">
        <ele>484</ele>
        <time>2018-11-08T16:05:02+01:00</time>
      </trkpt>
      <trkpt lat="44.98708" lon="4.69036">
        <ele>484</ele>
        <time>2018-11-08T16:05:09+01:00</time>
      </trkpt>
      <trkpt lat="44.987" lon="4.69034">
        <ele>484</ele>
        <time>2018-11-08T16:05:17+01:00</time>
      </trkpt>
      <trkpt lat="44.98694" lon="4.69031">
        <ele>484</ele>
        <time>2018-11-08T16:05:23+01:00</time>
      </trkpt>
      <trkpt lat="44.98685" lon="4.69027">
        <ele>483</ele>
        <time>2018-11-08T16:05:32+01:00</time>
      </trkpt>
      <trkpt lat="44.98683" lon="4.69026">
        <ele>483</ele>
        <time>2018-11-08T16:05:35+01:00</time>
      </trkpt>
      <trkpt lat="44.98676" lon="4.6902">
        <ele>482</ele>
        <time>2018-11-08T16:05:43+01:00</time>
      </trkpt>
      <trkpt lat="44.98669" lon="4.69014">
        <ele>482</ele>
        <time>2018-11-08T16:05:48+01:00</time>
      </trkpt>
      <trkpt lat="44.98665" lon="4.68999">
        <ele>480</ele>
        <time>2018-11-08T16:06:05+01:00</time>
      </trkpt>
      <trkpt lat="44.98667" lon="4.6898">
        <ele>480</ele>
        <time>2018-11-08T16:09:42+01:00</time>
      </trkpt>
      <trkpt lat="44.98661" lon="4.68967">
        <ele>480</ele>
        <time>2018-11-08T16:09:51+01:00</time>
      </trkpt>
      <trkpt lat="44.98656" lon="4.68957">
        <ele>481</ele>
        <time>2018-11-08T16:09:59+01:00</time>
      </trkpt>
      <trkpt lat="44.98653" lon="4.68953">
        <ele>481</ele>
        <time>2018-11-08T16:10:03+01:00</time>
      </trkpt>
      <trkpt lat="44.98648" lon="4.68948">
        <ele>482</ele>
        <time>2018-11-08T16:10:08+01:00</time>
      </trkpt>
      <trkpt lat="44.98645" lon="4.68939">
        <ele>482</ele>
        <time>2018-11-08T16:10:16+01:00</time>
      </trkpt>
      <trkpt lat="44.98646" lon="4.68938">
        <ele>482</ele>
        <time>2018-11-08T16:10:17+01:00</time>
      </trkpt>
      <trkpt lat="44.98653" lon="4.68928">
        <ele>481</ele>
        <time>2018-11-08T16:10:26+01:00</time>
      </trkpt>
      <trkpt lat="44.98655" lon="4.68925">
        <ele>480</ele>
        <time>2018-11-08T16:10:29+01:00</time>
      </trkpt>
      <trkpt lat="44.98656" lon="4.6892">
        <ele>480</ele>
        <time>2018-11-08T16:10:32+01:00</time>
      </trkpt>
      <trkpt lat="44.98653" lon="4.68906">
        <ele>481</ele>
        <time>2018-11-08T16:10:42+01:00</time>
      </trkpt>
      <trkpt lat="44.9865" lon="4.68899">
        <ele>482</ele>
        <time>2018-11-08T16:11:23+01:00</time>
      </trkpt>
      <trkpt lat="44.98649" lon="4.68895">
        <ele>483</ele>
        <time>2018-11-08T16:11:25+01:00</time>
      </trkpt>
      <trkpt lat="44.98647" lon="4.68884">
        <ele>484</ele>
        <time>2018-11-08T16:11:30+01:00</time>
      </trkpt>
      <trkpt lat="44.98646" lon="4.68871">
        <ele>485</ele>
        <time>2018-11-08T16:11:37+01:00</time>
      </trkpt>
      <trkpt lat="44.98643" lon="4.68856">
        <ele>487</ele>
        <time>2018-11-08T16:11:46+01:00</time>
      </trkpt>
      <trkpt lat="44.98641" lon="4.68854">
        <ele>487</ele>
        <time>2018-11-08T16:11:48+01:00</time>
      </trkpt>
      <trkpt lat="44.98627" lon="4.68851">
        <ele>488</ele>
        <time>2018-11-08T16:11:58+01:00</time>
      </trkpt>
      <trkpt lat="44.98619" lon="4.6885">
        <ele>489</ele>
        <time>2018-11-08T16:12:04+01:00</time>
      </trkpt>
      <trkpt lat="44.98617" lon="4.68843">
        <ele>490</ele>
        <time>2018-11-08T16:12:07+01:00</time>
      </trkpt>
      <trkpt lat="44.98617" lon="4.68839">
        <ele>490</ele>
        <time>2018-11-08T16:12:09+01:00</time>
      </trkpt>
      <trkpt lat="44.98619" lon="4.68821">
        <ele>491</ele>
        <time>2018-11-08T16:12:18+01:00</time>
      </trkpt>
      <trkpt lat="44.98619" lon="4.68818">
        <ele>491</ele>
        <time>2018-11-08T16:12:20+01:00</time>
      </trkpt>
      <trkpt lat="44.98615" lon="4.6881">
        <ele>491</ele>
        <time>2018-11-08T16:12:26+01:00</time>
      </trkpt>
      <trkpt lat="44.98613" lon="4.68807">
        <ele>491</ele>
        <time>2018-11-08T16:12:28+01:00</time>
      </trkpt>
      <trkpt lat="44.98612" lon="4.68806">
        <ele>491</ele>
        <time>2018-11-08T16:12:29+01:00</time>
      </trkpt>
      <trkpt lat="44.98606" lon="4.68802">
        <ele>492</ele>
        <time>2018-11-08T16:12:37+01:00</time>
      </trkpt>
      <trkpt lat="44.98606" lon="4.68801">
        <ele>492</ele>
        <time>2018-11-08T16:12:42+01:00</time>
      </trkpt>
      <trkpt lat="44.98605" lon="4.68802">
        <ele>492</ele>
        <time>2018-11-08T16:12:46+01:00</time>
      </trkpt>
      <trkpt lat="44.98603" lon="4.68801">
        <ele>492</ele>
        <time>2018-11-08T16:12:54+01:00</time>
      </trkpt>
    </trkseg>
  </trk>
</gpx>